<?xml version="1.0" encoding="UTF-8" standalone="no" ?>
<gpx xmlns="http://www.topografix.com/GPX/1/1" xmlns:xsi="http://www.w3.org/2001/XMLSchema-instance" xsi:schemaLocation="http://www.topografix.com/GPX/1/1 http://www.topografix.com/GPX/1/1/gpx.xsd" version="1.1" creator="VisuGPX - https://www.visugpx.com">
  <metadata>
    <name>Jura_Baume les messieurs-Chateau chalon</name>
  </metadata>
  <trk>
    <name><![CDATA[14-JUIL-22 03:20:09 PM]]></name>
    <extensions>
      <line xmlns="http://www.topografix.com/GPX/gpx_style/0/2">
        <color>0000FF</color>
        <width>4</width>
      </line>
    </extensions>
    <trkseg>
      <trkpt lat="46.71217" lon="5.63762">
        <ele>276.52</ele>
        <time>2022-07-14T08:02:00Z</time>
      </trkpt>
      <trkpt lat="46.71212" lon="5.63777">
        <ele>301.03</ele>
        <time>2022-07-14T08:02:14Z</time>
      </trkpt>
      <trkpt lat="46.71211" lon="5.63778">
        <ele>301.03</ele>
        <time>2022-07-14T08:02:15Z</time>
      </trkpt>
      <trkpt lat="46.71209" lon="5.63785">
        <ele>301.03</ele>
        <time>2022-07-14T08:02:31Z</time>
      </trkpt>
      <trkpt lat="46.71208" lon="5.63786">
        <ele>300.07</ele>
        <time>2022-07-14T08:02:44Z</time>
      </trkpt>
      <trkpt lat="46.71213" lon="5.63775">
        <ele>301.51</ele>
        <time>2022-07-14T08:27:24Z</time>
      </trkpt>
      <trkpt lat="46.71199" lon="5.63795">
        <ele>301.51</ele>
        <time>2022-07-14T08:27:59Z</time>
      </trkpt>
      <trkpt lat="46.71211" lon="5.63803">
        <ele>301.51</ele>
        <time>2022-07-14T08:28:37Z</time>
      </trkpt>
      <trkpt lat="46.71206" lon="5.63802">
        <ele>301.99</ele>
        <time>2022-07-14T08:29:11Z</time>
      </trkpt>
      <trkpt lat="46.71205" lon="5.63804">
        <ele>301.03</ele>
        <time>2022-07-14T08:29:40Z</time>
      </trkpt>
      <trkpt lat="46.71209" lon="5.63803">
        <ele>300.55</ele>
        <time>2022-07-14T08:30:15Z</time>
      </trkpt>
      <trkpt lat="46.71205" lon="5.63799">
        <ele>301.51</ele>
        <time>2022-07-14T08:30:41Z</time>
      </trkpt>
      <trkpt lat="46.71211" lon="5.63804">
        <ele>301.03</ele>
        <time>2022-07-14T08:31:11Z</time>
      </trkpt>
      <trkpt lat="46.71206" lon="5.638">
        <ele>301.51</ele>
        <time>2022-07-14T08:31:41Z</time>
      </trkpt>
      <trkpt lat="46.71191" lon="5.63779">
        <ele>301.03</ele>
        <time>2022-07-14T08:32:22Z</time>
      </trkpt>
      <trkpt lat="46.71187" lon="5.63778">
        <ele>301.51</ele>
        <time>2022-07-14T08:32:53Z</time>
      </trkpt>
      <trkpt lat="46.71205" lon="5.63792">
        <ele>301.03</ele>
        <time>2022-07-14T08:33:37Z</time>
      </trkpt>
      <trkpt lat="46.71206" lon="5.63792">
        <ele>301.99</ele>
        <time>2022-07-14T08:34:11Z</time>
      </trkpt>
      <trkpt lat="46.7121" lon="5.63794">
        <ele>301.03</ele>
        <time>2022-07-14T08:34:36Z</time>
      </trkpt>
      <trkpt lat="46.71204" lon="5.63797">
        <ele>301.99</ele>
        <time>2022-07-14T08:35:13Z</time>
      </trkpt>
      <trkpt lat="46.71204" lon="5.63807">
        <ele>301.51</ele>
        <time>2022-07-14T08:35:48Z</time>
      </trkpt>
      <trkpt lat="46.71201" lon="5.638">
        <ele>301.99</ele>
        <time>2022-07-14T08:36:20Z</time>
      </trkpt>
      <trkpt lat="46.71207" lon="5.63797">
        <ele>301.51</ele>
        <time>2022-07-14T08:36:35Z</time>
      </trkpt>
      <trkpt lat="46.71209" lon="5.63796">
        <ele>301.51</ele>
        <time>2022-07-14T08:36:38Z</time>
      </trkpt>
      <trkpt lat="46.7121" lon="5.63789">
        <ele>301.99</ele>
        <time>2022-07-14T08:36:49Z</time>
      </trkpt>
      <trkpt lat="46.71215" lon="5.63795">
        <ele>301.51</ele>
        <time>2022-07-14T08:36:59Z</time>
      </trkpt>
      <trkpt lat="46.71221" lon="5.63795">
        <ele>302.47</ele>
        <time>2022-07-14T08:37:12Z</time>
      </trkpt>
      <trkpt lat="46.71218" lon="5.63788">
        <ele>301.99</ele>
        <time>2022-07-14T08:37:28Z</time>
      </trkpt>
      <trkpt lat="46.71219" lon="5.63774">
        <ele>301.99</ele>
        <time>2022-07-14T08:37:34Z</time>
      </trkpt>
      <trkpt lat="46.71221" lon="5.63771">
        <ele>302.47</ele>
        <time>2022-07-14T08:37:35Z</time>
      </trkpt>
      <trkpt lat="46.71223" lon="5.63767">
        <ele>301.99</ele>
        <time>2022-07-14T08:37:36Z</time>
      </trkpt>
      <trkpt lat="46.71225" lon="5.63762">
        <ele>301.99</ele>
        <time>2022-07-14T08:37:37Z</time>
      </trkpt>
      <trkpt lat="46.71227" lon="5.63758">
        <ele>301.99</ele>
        <time>2022-07-14T08:37:38Z</time>
      </trkpt>
      <trkpt lat="46.7123" lon="5.63753">
        <ele>301.51</ele>
        <time>2022-07-14T08:37:39Z</time>
      </trkpt>
      <trkpt lat="46.7124" lon="5.63695">
        <ele>301.03</ele>
        <time>2022-07-14T08:37:53Z</time>
      </trkpt>
      <trkpt lat="46.71248" lon="5.6366">
        <ele>301.03</ele>
        <time>2022-07-14T08:38:01Z</time>
      </trkpt>
      <trkpt lat="46.71251" lon="5.63655">
        <ele>301.03</ele>
        <time>2022-07-14T08:38:02Z</time>
      </trkpt>
      <trkpt lat="46.71252" lon="5.6365">
        <ele>301.03</ele>
        <time>2022-07-14T08:38:03Z</time>
      </trkpt>
      <trkpt lat="46.71272" lon="5.63605">
        <ele>301.03</ele>
        <time>2022-07-14T08:38:17Z</time>
      </trkpt>
      <trkpt lat="46.71275" lon="5.63603">
        <ele>301.03</ele>
        <time>2022-07-14T08:38:19Z</time>
      </trkpt>
      <trkpt lat="46.71276" lon="5.63604">
        <ele>300.55</ele>
        <time>2022-07-14T08:38:20Z</time>
      </trkpt>
      <trkpt lat="46.71304" lon="5.63606">
        <ele>301.51</ele>
        <time>2022-07-14T08:38:31Z</time>
      </trkpt>
      <trkpt lat="46.71327" lon="5.63561">
        <ele>301.99</ele>
        <time>2022-07-14T08:38:43Z</time>
      </trkpt>
      <trkpt lat="46.71369" lon="5.6349">
        <ele>301.51</ele>
        <time>2022-07-14T08:38:58Z</time>
      </trkpt>
      <trkpt lat="46.71427" lon="5.63393">
        <ele>300.07</ele>
        <time>2022-07-14T08:39:14Z</time>
      </trkpt>
      <trkpt lat="46.71495" lon="5.63296">
        <ele>299.59</ele>
        <time>2022-07-14T08:39:32Z</time>
      </trkpt>
      <trkpt lat="46.71562" lon="5.63234">
        <ele>299.59</ele>
        <time>2022-07-14T08:39:48Z</time>
      </trkpt>
      <trkpt lat="46.71646" lon="5.63187">
        <ele>299.11</ele>
        <time>2022-07-14T08:40:06Z</time>
      </trkpt>
      <trkpt lat="46.71689" lon="5.63175">
        <ele>299.59</ele>
        <time>2022-07-14T08:40:15Z</time>
      </trkpt>
      <trkpt lat="46.71694" lon="5.63175">
        <ele>299.11</ele>
        <time>2022-07-14T08:40:16Z</time>
      </trkpt>
      <trkpt lat="46.71712" lon="5.63179">
        <ele>299.11</ele>
        <time>2022-07-14T08:40:20Z</time>
      </trkpt>
      <trkpt lat="46.71716" lon="5.63182">
        <ele>298.63</ele>
        <time>2022-07-14T08:40:21Z</time>
      </trkpt>
      <trkpt lat="46.71721" lon="5.63184">
        <ele>298.63</ele>
        <time>2022-07-14T08:40:22Z</time>
      </trkpt>
      <trkpt lat="46.71788" lon="5.63256">
        <ele>299.59</ele>
        <time>2022-07-14T08:40:39Z</time>
      </trkpt>
      <trkpt lat="46.7185" lon="5.63293">
        <ele>299.59</ele>
        <time>2022-07-14T08:40:53Z</time>
      </trkpt>
      <trkpt lat="46.71909" lon="5.63299">
        <ele>301.03</ele>
        <time>2022-07-14T08:41:08Z</time>
      </trkpt>
      <trkpt lat="46.71955" lon="5.63306">
        <ele>301.99</ele>
        <time>2022-07-14T08:41:20Z</time>
      </trkpt>
      <trkpt lat="46.71978" lon="5.63318">
        <ele>301.03</ele>
        <time>2022-07-14T08:41:25Z</time>
      </trkpt>
      <trkpt lat="46.72056" lon="5.63381">
        <ele>299.11</ele>
        <time>2022-07-14T08:41:40Z</time>
      </trkpt>
      <trkpt lat="46.72135" lon="5.63405">
        <ele>297.67</ele>
        <time>2022-07-14T08:41:55Z</time>
      </trkpt>
      <trkpt lat="46.72144" lon="5.63407">
        <ele>298.15</ele>
        <time>2022-07-14T08:41:57Z</time>
      </trkpt>
      <trkpt lat="46.72149" lon="5.63409">
        <ele>298.15</ele>
        <time>2022-07-14T08:41:58Z</time>
      </trkpt>
      <trkpt lat="46.72165" lon="5.6342">
        <ele>298.63</ele>
        <time>2022-07-14T08:42:01Z</time>
      </trkpt>
      <trkpt lat="46.72169" lon="5.63424">
        <ele>298.15</ele>
        <time>2022-07-14T08:42:02Z</time>
      </trkpt>
      <trkpt lat="46.72221" lon="5.63468">
        <ele>297.67</ele>
        <time>2022-07-14T08:42:16Z</time>
      </trkpt>
      <trkpt lat="46.7229" lon="5.63536">
        <ele>296.7</ele>
        <time>2022-07-14T08:42:32Z</time>
      </trkpt>
      <trkpt lat="46.72348" lon="5.63608">
        <ele>297.18</ele>
        <time>2022-07-14T08:42:47Z</time>
      </trkpt>
      <trkpt lat="46.72417" lon="5.63677">
        <ele>297.18</ele>
        <time>2022-07-14T08:43:03Z</time>
      </trkpt>
      <trkpt lat="46.72499" lon="5.63739">
        <ele>295.74</ele>
        <time>2022-07-14T08:43:18Z</time>
      </trkpt>
      <trkpt lat="46.72522" lon="5.6375">
        <ele>295.26</ele>
        <time>2022-07-14T08:43:22Z</time>
      </trkpt>
      <trkpt lat="46.72612" lon="5.63791">
        <ele>293.34</ele>
        <time>2022-07-14T08:43:39Z</time>
      </trkpt>
      <trkpt lat="46.72651" lon="5.63806">
        <ele>293.82</ele>
        <time>2022-07-14T08:43:47Z</time>
      </trkpt>
      <trkpt lat="46.72656" lon="5.63807">
        <ele>293.82</ele>
        <time>2022-07-14T08:43:48Z</time>
      </trkpt>
      <trkpt lat="46.7266" lon="5.63808">
        <ele>294.3</ele>
        <time>2022-07-14T08:43:49Z</time>
      </trkpt>
      <trkpt lat="46.72742" lon="5.63802">
        <ele>292.86</ele>
        <time>2022-07-14T08:44:05Z</time>
      </trkpt>
      <trkpt lat="46.72849" lon="5.63761">
        <ele>291.42</ele>
        <time>2022-07-14T08:44:23Z</time>
      </trkpt>
      <trkpt lat="46.72865" lon="5.6375">
        <ele>290.94</ele>
        <time>2022-07-14T08:44:26Z</time>
      </trkpt>
      <trkpt lat="46.72927" lon="5.63676">
        <ele>289.97</ele>
        <time>2022-07-14T08:44:41Z</time>
      </trkpt>
      <trkpt lat="46.73002" lon="5.6364">
        <ele>289.49</ele>
        <time>2022-07-14T08:44:55Z</time>
      </trkpt>
      <trkpt lat="46.73086" lon="5.63651">
        <ele>289.49</ele>
        <time>2022-07-14T08:45:11Z</time>
      </trkpt>
      <trkpt lat="46.73128" lon="5.63658">
        <ele>289.97</ele>
        <time>2022-07-14T08:45:25Z</time>
      </trkpt>
      <trkpt lat="46.73187" lon="5.63657">
        <ele>290.94</ele>
        <time>2022-07-14T08:45:43Z</time>
      </trkpt>
      <trkpt lat="46.73193" lon="5.63659">
        <ele>290.46</ele>
        <time>2022-07-14T08:45:54Z</time>
      </trkpt>
      <trkpt lat="46.73193" lon="5.63662">
        <ele>290.46</ele>
        <time>2022-07-14T08:46:15Z</time>
      </trkpt>
      <trkpt lat="46.73196" lon="5.63659">
        <ele>290.46</ele>
        <time>2022-07-14T08:46:41Z</time>
      </trkpt>
      <trkpt lat="46.73197" lon="5.63658">
        <ele>290.46</ele>
        <time>2022-07-14T08:46:42Z</time>
      </trkpt>
      <trkpt lat="46.73198" lon="5.63659">
        <ele>289.97</ele>
        <time>2022-07-14T08:46:43Z</time>
      </trkpt>
      <trkpt lat="46.732" lon="5.63659">
        <ele>290.46</ele>
        <time>2022-07-14T08:46:44Z</time>
      </trkpt>
      <trkpt lat="46.73202" lon="5.6366">
        <ele>290.46</ele>
        <time>2022-07-14T08:46:45Z</time>
      </trkpt>
      <trkpt lat="46.73204" lon="5.6366">
        <ele>290.94</ele>
        <time>2022-07-14T08:46:46Z</time>
      </trkpt>
      <trkpt lat="46.73206" lon="5.6366">
        <ele>290.46</ele>
        <time>2022-07-14T08:46:47Z</time>
      </trkpt>
      <trkpt lat="46.73208" lon="5.6366">
        <ele>290.46</ele>
        <time>2022-07-14T08:46:48Z</time>
      </trkpt>
      <trkpt lat="46.73255" lon="5.63661">
        <ele>290.94</ele>
        <time>2022-07-14T08:47:04Z</time>
      </trkpt>
      <trkpt lat="46.733" lon="5.63647">
        <ele>290.94</ele>
        <time>2022-07-14T08:47:18Z</time>
      </trkpt>
      <trkpt lat="46.73357" lon="5.63588">
        <ele>290.94</ele>
        <time>2022-07-14T08:47:34Z</time>
      </trkpt>
      <trkpt lat="46.73416" lon="5.63533">
        <ele>289.97</ele>
        <time>2022-07-14T08:47:48Z</time>
      </trkpt>
      <trkpt lat="46.73484" lon="5.63485">
        <ele>289.97</ele>
        <time>2022-07-14T08:48:04Z</time>
      </trkpt>
      <trkpt lat="46.73501" lon="5.63474">
        <ele>289.97</ele>
        <time>2022-07-14T08:48:08Z</time>
      </trkpt>
      <trkpt lat="46.73574" lon="5.63463">
        <ele>289.01</ele>
        <time>2022-07-14T08:48:24Z</time>
      </trkpt>
      <trkpt lat="46.73578" lon="5.63464">
        <ele>288.53</ele>
        <time>2022-07-14T08:48:25Z</time>
      </trkpt>
      <trkpt lat="46.7366" lon="5.63487">
        <ele>287.09</ele>
        <time>2022-07-14T08:48:39Z</time>
      </trkpt>
      <trkpt lat="46.73719" lon="5.63483">
        <ele>285.65</ele>
        <time>2022-07-14T08:48:49Z</time>
      </trkpt>
      <trkpt lat="46.73797" lon="5.6341">
        <ele>287.09</ele>
        <time>2022-07-14T08:49:06Z</time>
      </trkpt>
      <trkpt lat="46.73819" lon="5.63389">
        <ele>286.61</ele>
        <time>2022-07-14T08:49:12Z</time>
      </trkpt>
      <trkpt lat="46.73868" lon="5.63327">
        <ele>286.61</ele>
        <time>2022-07-14T08:49:28Z</time>
      </trkpt>
      <trkpt lat="46.73933" lon="5.63225">
        <ele>286.61</ele>
        <time>2022-07-14T08:49:48Z</time>
      </trkpt>
      <trkpt lat="46.73939" lon="5.63207">
        <ele>287.09</ele>
        <time>2022-07-14T08:49:51Z</time>
      </trkpt>
      <trkpt lat="46.73974" lon="5.63168">
        <ele>288.05</ele>
        <time>2022-07-14T08:50:04Z</time>
      </trkpt>
      <trkpt lat="46.74017" lon="5.63142">
        <ele>289.49</ele>
        <time>2022-07-14T08:50:21Z</time>
      </trkpt>
      <trkpt lat="46.74063" lon="5.63111">
        <ele>289.49</ele>
        <time>2022-07-14T08:50:35Z</time>
      </trkpt>
      <trkpt lat="46.74134" lon="5.63061">
        <ele>288.05</ele>
        <time>2022-07-14T08:50:52Z</time>
      </trkpt>
      <trkpt lat="46.74185" lon="5.63008">
        <ele>288.53</ele>
        <time>2022-07-14T08:51:08Z</time>
      </trkpt>
      <trkpt lat="46.74242" lon="5.62944">
        <ele>287.57</ele>
        <time>2022-07-14T08:51:23Z</time>
      </trkpt>
      <trkpt lat="46.74272" lon="5.62897">
        <ele>286.61</ele>
        <time>2022-07-14T08:51:30Z</time>
      </trkpt>
      <trkpt lat="46.74279" lon="5.6288">
        <ele>285.65</ele>
        <time>2022-07-14T08:51:32Z</time>
      </trkpt>
      <trkpt lat="46.74281" lon="5.6287">
        <ele>285.17</ele>
        <time>2022-07-14T08:51:33Z</time>
      </trkpt>
      <trkpt lat="46.74302" lon="5.62794">
        <ele>282.77</ele>
        <time>2022-07-14T08:51:40Z</time>
      </trkpt>
      <trkpt lat="46.74307" lon="5.62784">
        <ele>282.28</ele>
        <time>2022-07-14T08:51:41Z</time>
      </trkpt>
      <trkpt lat="46.74313" lon="5.62775">
        <ele>281.32</ele>
        <time>2022-07-14T08:51:42Z</time>
      </trkpt>
      <trkpt lat="46.7432" lon="5.62767">
        <ele>281.32</ele>
        <time>2022-07-14T08:51:43Z</time>
      </trkpt>
      <trkpt lat="46.74327" lon="5.6276">
        <ele>281.32</ele>
        <time>2022-07-14T08:51:44Z</time>
      </trkpt>
      <trkpt lat="46.74336" lon="5.62754">
        <ele>280.84</ele>
        <time>2022-07-14T08:51:45Z</time>
      </trkpt>
      <trkpt lat="46.74344" lon="5.6275">
        <ele>280.36</ele>
        <time>2022-07-14T08:51:46Z</time>
      </trkpt>
      <trkpt lat="46.7439" lon="5.62728">
        <ele>279.4</ele>
        <time>2022-07-14T08:51:52Z</time>
      </trkpt>
      <trkpt lat="46.74444" lon="5.62701">
        <ele>278.44</ele>
        <time>2022-07-14T08:52:00Z</time>
      </trkpt>
      <trkpt lat="46.7445" lon="5.62695">
        <ele>278.44</ele>
        <time>2022-07-14T08:52:01Z</time>
      </trkpt>
      <trkpt lat="46.74494" lon="5.62641">
        <ele>276.52</ele>
        <time>2022-07-14T08:52:10Z</time>
      </trkpt>
      <trkpt lat="46.74505" lon="5.62631">
        <ele>277</ele>
        <time>2022-07-14T08:52:12Z</time>
      </trkpt>
      <trkpt lat="46.74534" lon="5.62609">
        <ele>276.52</ele>
        <time>2022-07-14T08:52:19Z</time>
      </trkpt>
      <trkpt lat="46.74534" lon="5.626">
        <ele>276.04</ele>
        <time>2022-07-14T08:52:22Z</time>
      </trkpt>
      <trkpt lat="46.74534" lon="5.62597">
        <ele>276.04</ele>
        <time>2022-07-14T08:52:23Z</time>
      </trkpt>
      <trkpt lat="46.74535" lon="5.62596">
        <ele>275.07</ele>
        <time>2022-07-14T08:52:24Z</time>
      </trkpt>
      <trkpt lat="46.74536" lon="5.62594">
        <ele>275.56</ele>
        <time>2022-07-14T08:52:25Z</time>
      </trkpt>
      <trkpt lat="46.74537" lon="5.62593">
        <ele>275.56</ele>
        <time>2022-07-14T08:52:26Z</time>
      </trkpt>
      <trkpt lat="46.74538" lon="5.62592">
        <ele>276.04</ele>
        <time>2022-07-14T08:52:27Z</time>
      </trkpt>
      <trkpt lat="46.7454" lon="5.62591">
        <ele>275.56</ele>
        <time>2022-07-14T08:52:28Z</time>
      </trkpt>
      <trkpt lat="46.74541" lon="5.62589">
        <ele>275.07</ele>
        <time>2022-07-14T08:52:29Z</time>
      </trkpt>
      <trkpt lat="46.74542" lon="5.62585">
        <ele>275.56</ele>
        <time>2022-07-14T08:52:42Z</time>
      </trkpt>
      <trkpt lat="46.74543" lon="5.62585">
        <ele>275.07</ele>
        <time>2022-07-14T08:52:55Z</time>
      </trkpt>
      <trkpt lat="46.74542" lon="5.62585">
        <ele>275.07</ele>
        <time>2022-07-14T08:52:56Z</time>
      </trkpt>
      <trkpt lat="46.74541" lon="5.62585">
        <ele>275.07</ele>
        <time>2022-07-14T08:52:57Z</time>
      </trkpt>
      <trkpt lat="46.7454" lon="5.62586">
        <ele>275.07</ele>
        <time>2022-07-14T08:52:58Z</time>
      </trkpt>
      <trkpt lat="46.74539" lon="5.62586">
        <ele>275.56</ele>
        <time>2022-07-14T08:52:59Z</time>
      </trkpt>
      <trkpt lat="46.74538" lon="5.62588">
        <ele>275.56</ele>
        <time>2022-07-14T08:53:03Z</time>
      </trkpt>
      <trkpt lat="46.74537" lon="5.62589">
        <ele>275.56</ele>
        <time>2022-07-14T08:53:04Z</time>
      </trkpt>
      <trkpt lat="46.74537" lon="5.62591">
        <ele>275.07</ele>
        <time>2022-07-14T08:53:05Z</time>
      </trkpt>
      <trkpt lat="46.74537" lon="5.62592">
        <ele>275.07</ele>
        <time>2022-07-14T08:53:06Z</time>
      </trkpt>
      <trkpt lat="46.74536" lon="5.62594">
        <ele>275.07</ele>
        <time>2022-07-14T08:53:07Z</time>
      </trkpt>
      <trkpt lat="46.74536" lon="5.62596">
        <ele>275.56</ele>
        <time>2022-07-14T08:53:08Z</time>
      </trkpt>
      <trkpt lat="46.74536" lon="5.62598">
        <ele>275.56</ele>
        <time>2022-07-14T08:53:09Z</time>
      </trkpt>
      <trkpt lat="46.74536" lon="5.62602">
        <ele>275.56</ele>
        <time>2022-07-14T08:53:11Z</time>
      </trkpt>
      <trkpt lat="46.74562" lon="5.62602">
        <ele>276.04</ele>
        <time>2022-07-14T08:53:24Z</time>
      </trkpt>
      <trkpt lat="46.74612" lon="5.62577">
        <ele>277.48</ele>
        <time>2022-07-14T08:53:40Z</time>
      </trkpt>
      <trkpt lat="46.74645" lon="5.62557">
        <ele>276.52</ele>
        <time>2022-07-14T08:53:50Z</time>
      </trkpt>
      <trkpt lat="46.74649" lon="5.62555">
        <ele>275.56</ele>
        <time>2022-07-14T08:53:59Z</time>
      </trkpt>
      <trkpt lat="46.7465" lon="5.62556">
        <ele>276.04</ele>
        <time>2022-07-14T08:54:34Z</time>
      </trkpt>
      <trkpt lat="46.74651" lon="5.62555">
        <ele>276.04</ele>
        <time>2022-07-14T08:54:56Z</time>
      </trkpt>
      <trkpt lat="46.74652" lon="5.62554">
        <ele>276.04</ele>
        <time>2022-07-14T08:54:57Z</time>
      </trkpt>
      <trkpt lat="46.74674" lon="5.62527">
        <ele>275.56</ele>
        <time>2022-07-14T08:55:10Z</time>
      </trkpt>
      <trkpt lat="46.74725" lon="5.62466">
        <ele>274.59</ele>
        <time>2022-07-14T08:55:25Z</time>
      </trkpt>
      <trkpt lat="46.74752" lon="5.62394">
        <ele>274.11</ele>
        <time>2022-07-14T08:55:37Z</time>
      </trkpt>
      <trkpt lat="46.74754" lon="5.62388">
        <ele>273.63</ele>
        <time>2022-07-14T08:55:38Z</time>
      </trkpt>
      <trkpt lat="46.74778" lon="5.62292">
        <ele>273.15</ele>
        <time>2022-07-14T08:55:53Z</time>
      </trkpt>
      <trkpt lat="46.7482" lon="5.6221">
        <ele>272.67</ele>
        <time>2022-07-14T08:56:07Z</time>
      </trkpt>
      <trkpt lat="46.74863" lon="5.62132">
        <ele>272.67</ele>
        <time>2022-07-14T08:56:21Z</time>
      </trkpt>
      <trkpt lat="46.74874" lon="5.62118">
        <ele>272.19</ele>
        <time>2022-07-14T08:56:24Z</time>
      </trkpt>
      <trkpt lat="46.74944" lon="5.62032">
        <ele>272.67</ele>
        <time>2022-07-14T08:56:43Z</time>
      </trkpt>
      <trkpt lat="46.74967" lon="5.61987">
        <ele>273.15</ele>
        <time>2022-07-14T08:56:52Z</time>
      </trkpt>
      <trkpt lat="46.7497" lon="5.61983">
        <ele>273.15</ele>
        <time>2022-07-14T08:56:53Z</time>
      </trkpt>
      <trkpt lat="46.74973" lon="5.61978">
        <ele>273.15</ele>
        <time>2022-07-14T08:56:54Z</time>
      </trkpt>
      <trkpt lat="46.75038" lon="5.6191">
        <ele>272.67</ele>
        <time>2022-07-14T08:57:10Z</time>
      </trkpt>
      <trkpt lat="46.7505" lon="5.61899">
        <ele>272.67</ele>
        <time>2022-07-14T08:57:13Z</time>
      </trkpt>
      <trkpt lat="46.75115" lon="5.61831">
        <ele>272.19</ele>
        <time>2022-07-14T08:57:30Z</time>
      </trkpt>
      <trkpt lat="46.7517" lon="5.61745">
        <ele>271.71</ele>
        <time>2022-07-14T08:57:47Z</time>
      </trkpt>
      <trkpt lat="46.75238" lon="5.61684">
        <ele>270.75</ele>
        <time>2022-07-14T08:58:02Z</time>
      </trkpt>
      <trkpt lat="46.75259" lon="5.61669">
        <ele>270.27</ele>
        <time>2022-07-14T08:58:06Z</time>
      </trkpt>
      <trkpt lat="46.75263" lon="5.61664">
        <ele>270.75</ele>
        <time>2022-07-14T08:58:07Z</time>
      </trkpt>
      <trkpt lat="46.75268" lon="5.61659">
        <ele>270.27</ele>
        <time>2022-07-14T08:58:08Z</time>
      </trkpt>
      <trkpt lat="46.75276" lon="5.61646">
        <ele>270.75</ele>
        <time>2022-07-14T08:58:10Z</time>
      </trkpt>
      <trkpt lat="46.75281" lon="5.61632">
        <ele>270.27</ele>
        <time>2022-07-14T08:58:12Z</time>
      </trkpt>
      <trkpt lat="46.7529" lon="5.61603">
        <ele>270.75</ele>
        <time>2022-07-14T08:58:16Z</time>
      </trkpt>
      <trkpt lat="46.75313" lon="5.615">
        <ele>269.79</ele>
        <time>2022-07-14T08:58:30Z</time>
      </trkpt>
      <trkpt lat="46.75315" lon="5.61492">
        <ele>269.79</ele>
        <time>2022-07-14T08:58:31Z</time>
      </trkpt>
      <trkpt lat="46.75324" lon="5.61456">
        <ele>269.79</ele>
        <time>2022-07-14T08:58:36Z</time>
      </trkpt>
      <trkpt lat="46.75329" lon="5.61425">
        <ele>270.27</ele>
        <time>2022-07-14T08:58:40Z</time>
      </trkpt>
      <trkpt lat="46.75338" lon="5.61374">
        <ele>270.27</ele>
        <time>2022-07-14T08:58:47Z</time>
      </trkpt>
      <trkpt lat="46.75341" lon="5.61368">
        <ele>269.79</ele>
        <time>2022-07-14T08:58:48Z</time>
      </trkpt>
      <trkpt lat="46.75345" lon="5.61362">
        <ele>269.79</ele>
        <time>2022-07-14T08:58:49Z</time>
      </trkpt>
      <trkpt lat="46.75414" lon="5.61271">
        <ele>269.31</ele>
        <time>2022-07-14T08:59:07Z</time>
      </trkpt>
      <trkpt lat="46.75418" lon="5.61266">
        <ele>269.31</ele>
        <time>2022-07-14T08:59:08Z</time>
      </trkpt>
      <trkpt lat="46.75422" lon="5.61263">
        <ele>269.31</ele>
        <time>2022-07-14T08:59:09Z</time>
      </trkpt>
      <trkpt lat="46.75426" lon="5.61259">
        <ele>269.79</ele>
        <time>2022-07-14T08:59:10Z</time>
      </trkpt>
      <trkpt lat="46.75431" lon="5.61257">
        <ele>269.79</ele>
        <time>2022-07-14T08:59:11Z</time>
      </trkpt>
      <trkpt lat="46.75435" lon="5.61255">
        <ele>269.79</ele>
        <time>2022-07-14T08:59:12Z</time>
      </trkpt>
      <trkpt lat="46.7544" lon="5.61253">
        <ele>269.31</ele>
        <time>2022-07-14T08:59:13Z</time>
      </trkpt>
      <trkpt lat="46.75445" lon="5.61249">
        <ele>269.31</ele>
        <time>2022-07-14T08:59:14Z</time>
      </trkpt>
      <trkpt lat="46.75449" lon="5.61246">
        <ele>268.83</ele>
        <time>2022-07-14T08:59:15Z</time>
      </trkpt>
      <trkpt lat="46.75454" lon="5.61242">
        <ele>269.31</ele>
        <time>2022-07-14T08:59:16Z</time>
      </trkpt>
      <trkpt lat="46.75458" lon="5.61237">
        <ele>269.31</ele>
        <time>2022-07-14T08:59:17Z</time>
      </trkpt>
      <trkpt lat="46.75462" lon="5.61231">
        <ele>269.31</ele>
        <time>2022-07-14T08:59:18Z</time>
      </trkpt>
      <trkpt lat="46.75496" lon="5.61191">
        <ele>268.35</ele>
        <time>2022-07-14T08:59:26Z</time>
      </trkpt>
      <trkpt lat="46.75501" lon="5.61187">
        <ele>268.35</ele>
        <time>2022-07-14T08:59:27Z</time>
      </trkpt>
      <trkpt lat="46.75505" lon="5.61184">
        <ele>268.35</ele>
        <time>2022-07-14T08:59:28Z</time>
      </trkpt>
      <trkpt lat="46.75534" lon="5.61173">
        <ele>267.86</ele>
        <time>2022-07-14T08:59:34Z</time>
      </trkpt>
      <trkpt lat="46.75538" lon="5.61173">
        <ele>268.35</ele>
        <time>2022-07-14T08:59:35Z</time>
      </trkpt>
      <trkpt lat="46.7554" lon="5.61174">
        <ele>267.38</ele>
        <time>2022-07-14T08:59:36Z</time>
      </trkpt>
      <trkpt lat="46.75542" lon="5.61176">
        <ele>267.38</ele>
        <time>2022-07-14T08:59:37Z</time>
      </trkpt>
      <trkpt lat="46.75543" lon="5.61177">
        <ele>267.38</ele>
        <time>2022-07-14T08:59:38Z</time>
      </trkpt>
      <trkpt lat="46.75544" lon="5.61178">
        <ele>267.38</ele>
        <time>2022-07-14T08:59:39Z</time>
      </trkpt>
      <trkpt lat="46.7556" lon="5.61197">
        <ele>267.38</ele>
        <time>2022-07-14T08:59:52Z</time>
      </trkpt>
      <trkpt lat="46.75581" lon="5.61225">
        <ele>267.38</ele>
        <time>2022-07-14T09:00:01Z</time>
      </trkpt>
      <trkpt lat="46.75584" lon="5.6123">
        <ele>266.9</ele>
        <time>2022-07-14T09:00:02Z</time>
      </trkpt>
      <trkpt lat="46.75587" lon="5.61233">
        <ele>267.38</ele>
        <time>2022-07-14T09:00:03Z</time>
      </trkpt>
      <trkpt lat="46.75591" lon="5.61237">
        <ele>267.38</ele>
        <time>2022-07-14T09:00:04Z</time>
      </trkpt>
      <trkpt lat="46.75594" lon="5.61242">
        <ele>266.9</ele>
        <time>2022-07-14T09:00:05Z</time>
      </trkpt>
      <trkpt lat="46.75639" lon="5.61298">
        <ele>266.9</ele>
        <time>2022-07-14T09:00:17Z</time>
      </trkpt>
      <trkpt lat="46.75693" lon="5.61389">
        <ele>266.9</ele>
        <time>2022-07-14T09:00:33Z</time>
      </trkpt>
      <trkpt lat="46.7574" lon="5.61474">
        <ele>265.94</ele>
        <time>2022-07-14T09:00:48Z</time>
      </trkpt>
      <trkpt lat="46.75761" lon="5.61509">
        <ele>266.42</ele>
        <time>2022-07-14T09:00:55Z</time>
      </trkpt>
      <trkpt lat="46.75763" lon="5.61515">
        <ele>266.42</ele>
        <time>2022-07-14T09:00:56Z</time>
      </trkpt>
      <trkpt lat="46.75791" lon="5.61561">
        <ele>266.42</ele>
        <time>2022-07-14T09:01:05Z</time>
      </trkpt>
      <trkpt lat="46.75795" lon="5.61566">
        <ele>266.42</ele>
        <time>2022-07-14T09:01:06Z</time>
      </trkpt>
      <trkpt lat="46.75799" lon="5.6157">
        <ele>266.42</ele>
        <time>2022-07-14T09:01:07Z</time>
      </trkpt>
      <trkpt lat="46.75803" lon="5.61574">
        <ele>266.42</ele>
        <time>2022-07-14T09:01:08Z</time>
      </trkpt>
      <trkpt lat="46.75808" lon="5.61578">
        <ele>265.94</ele>
        <time>2022-07-14T09:01:09Z</time>
      </trkpt>
      <trkpt lat="46.75828" lon="5.61598">
        <ele>266.42</ele>
        <time>2022-07-14T09:01:14Z</time>
      </trkpt>
      <trkpt lat="46.75832" lon="5.61603">
        <ele>265.94</ele>
        <time>2022-07-14T09:01:15Z</time>
      </trkpt>
      <trkpt lat="46.75835" lon="5.61609">
        <ele>266.42</ele>
        <time>2022-07-14T09:01:16Z</time>
      </trkpt>
      <trkpt lat="46.75837" lon="5.61614">
        <ele>266.42</ele>
        <time>2022-07-14T09:01:17Z</time>
      </trkpt>
      <trkpt lat="46.7584" lon="5.6162">
        <ele>266.42</ele>
        <time>2022-07-14T09:01:18Z</time>
      </trkpt>
      <trkpt lat="46.75867" lon="5.61675">
        <ele>268.35</ele>
        <time>2022-07-14T09:01:32Z</time>
      </trkpt>
      <trkpt lat="46.75883" lon="5.6171">
        <ele>270.75</ele>
        <time>2022-07-14T09:01:47Z</time>
      </trkpt>
      <trkpt lat="46.75895" lon="5.6176">
        <ele>273.15</ele>
        <time>2022-07-14T09:02:06Z</time>
      </trkpt>
      <trkpt lat="46.75883" lon="5.61798">
        <ele>275.56</ele>
        <time>2022-07-14T09:02:20Z</time>
      </trkpt>
      <trkpt lat="46.75851" lon="5.61809">
        <ele>276.52</ele>
        <time>2022-07-14T09:02:35Z</time>
      </trkpt>
      <trkpt lat="46.75815" lon="5.61811">
        <ele>278.44</ele>
        <time>2022-07-14T09:02:51Z</time>
      </trkpt>
      <trkpt lat="46.75773" lon="5.61813">
        <ele>281.8</ele>
        <time>2022-07-14T09:03:08Z</time>
      </trkpt>
      <trkpt lat="46.75733" lon="5.61812">
        <ele>283.25</ele>
        <time>2022-07-14T09:03:24Z</time>
      </trkpt>
      <trkpt lat="46.75695" lon="5.61807">
        <ele>285.65</ele>
        <time>2022-07-14T09:03:41Z</time>
      </trkpt>
      <trkpt lat="46.7565" lon="5.61814">
        <ele>287.09</ele>
        <time>2022-07-14T09:03:58Z</time>
      </trkpt>
      <trkpt lat="46.75622" lon="5.61819">
        <ele>288.05</ele>
        <time>2022-07-14T09:04:11Z</time>
      </trkpt>
      <trkpt lat="46.7562" lon="5.61819">
        <ele>288.05</ele>
        <time>2022-07-14T09:04:12Z</time>
      </trkpt>
      <trkpt lat="46.75619" lon="5.61819">
        <ele>288.05</ele>
        <time>2022-07-14T09:04:13Z</time>
      </trkpt>
      <trkpt lat="46.75613" lon="5.61818">
        <ele>288.05</ele>
        <time>2022-07-14T09:04:28Z</time>
      </trkpt>
      <trkpt lat="46.75618" lon="5.61819">
        <ele>288.05</ele>
        <time>2022-07-14T09:04:50Z</time>
      </trkpt>
      <trkpt lat="46.75619" lon="5.61821">
        <ele>288.05</ele>
        <time>2022-07-14T09:05:23Z</time>
      </trkpt>
      <trkpt lat="46.75611" lon="5.6182">
        <ele>288.53</ele>
        <time>2022-07-14T09:05:50Z</time>
      </trkpt>
      <trkpt lat="46.75583" lon="5.61838">
        <ele>289.01</ele>
        <time>2022-07-14T09:06:03Z</time>
      </trkpt>
      <trkpt lat="46.75594" lon="5.61869">
        <ele>290.94</ele>
        <time>2022-07-14T09:06:15Z</time>
      </trkpt>
      <trkpt lat="46.75628" lon="5.61854">
        <ele>291.9</ele>
        <time>2022-07-14T09:06:28Z</time>
      </trkpt>
      <trkpt lat="46.75667" lon="5.6185">
        <ele>292.86</ele>
        <time>2022-07-14T09:06:43Z</time>
      </trkpt>
      <trkpt lat="46.75713" lon="5.61867">
        <ele>295.26</ele>
        <time>2022-07-14T09:07:01Z</time>
      </trkpt>
      <trkpt lat="46.75727" lon="5.61887">
        <ele>296.22</ele>
        <time>2022-07-14T09:07:14Z</time>
      </trkpt>
      <trkpt lat="46.75728" lon="5.61891">
        <ele>296.7</ele>
        <time>2022-07-14T09:07:42Z</time>
      </trkpt>
      <trkpt lat="46.75728" lon="5.61891">
        <ele>296.22</ele>
        <time>2022-07-14T09:08:11Z</time>
      </trkpt>
      <trkpt lat="46.7573" lon="5.61892">
        <ele>296.22</ele>
        <time>2022-07-14T09:08:17Z</time>
      </trkpt>
      <trkpt lat="46.75731" lon="5.61891">
        <ele>296.22</ele>
        <time>2022-07-14T09:08:18Z</time>
      </trkpt>
      <trkpt lat="46.75733" lon="5.61891">
        <ele>295.74</ele>
        <time>2022-07-14T09:08:19Z</time>
      </trkpt>
      <trkpt lat="46.75735" lon="5.61892">
        <ele>296.22</ele>
        <time>2022-07-14T09:08:20Z</time>
      </trkpt>
      <trkpt lat="46.75736" lon="5.61894">
        <ele>296.22</ele>
        <time>2022-07-14T09:08:21Z</time>
      </trkpt>
      <trkpt lat="46.7577" lon="5.61935">
        <ele>299.11</ele>
        <time>2022-07-14T09:08:39Z</time>
      </trkpt>
      <trkpt lat="46.75799" lon="5.61994">
        <ele>300.55</ele>
        <time>2022-07-14T09:08:58Z</time>
      </trkpt>
      <trkpt lat="46.75823" lon="5.62071">
        <ele>303.43</ele>
        <time>2022-07-14T09:09:20Z</time>
      </trkpt>
      <trkpt lat="46.75842" lon="5.62145">
        <ele>305.84</ele>
        <time>2022-07-14T09:09:41Z</time>
      </trkpt>
      <trkpt lat="46.7586" lon="5.62213">
        <ele>308.24</ele>
        <time>2022-07-14T09:10:00Z</time>
      </trkpt>
      <trkpt lat="46.75874" lon="5.6228">
        <ele>310.64</ele>
        <time>2022-07-14T09:10:19Z</time>
      </trkpt>
      <trkpt lat="46.75885" lon="5.62342">
        <ele>313.05</ele>
        <time>2022-07-14T09:10:36Z</time>
      </trkpt>
      <trkpt lat="46.75892" lon="5.624">
        <ele>315.45</ele>
        <time>2022-07-14T09:10:53Z</time>
      </trkpt>
      <trkpt lat="46.75898" lon="5.62463">
        <ele>317.37</ele>
        <time>2022-07-14T09:11:10Z</time>
      </trkpt>
      <trkpt lat="46.75904" lon="5.62511">
        <ele>319.3</ele>
        <time>2022-07-14T09:11:28Z</time>
      </trkpt>
      <trkpt lat="46.7591" lon="5.62554">
        <ele>320.74</ele>
        <time>2022-07-14T09:11:44Z</time>
      </trkpt>
      <trkpt lat="46.75914" lon="5.62598">
        <ele>322.66</ele>
        <time>2022-07-14T09:12:00Z</time>
      </trkpt>
      <trkpt lat="46.75922" lon="5.62654">
        <ele>324.58</ele>
        <time>2022-07-14T09:12:18Z</time>
      </trkpt>
      <trkpt lat="46.75929" lon="5.62699">
        <ele>326.99</ele>
        <time>2022-07-14T09:12:32Z</time>
      </trkpt>
      <trkpt lat="46.7594" lon="5.62752">
        <ele>328.91</ele>
        <time>2022-07-14T09:12:47Z</time>
      </trkpt>
      <trkpt lat="46.7595" lon="5.628">
        <ele>330.35</ele>
        <time>2022-07-14T09:13:01Z</time>
      </trkpt>
      <trkpt lat="46.75971" lon="5.62852">
        <ele>332.75</ele>
        <time>2022-07-14T09:13:17Z</time>
      </trkpt>
      <trkpt lat="46.7599" lon="5.62929">
        <ele>335.64</ele>
        <time>2022-07-14T09:13:39Z</time>
      </trkpt>
      <trkpt lat="46.76002" lon="5.62999">
        <ele>338.04</ele>
        <time>2022-07-14T09:13:59Z</time>
      </trkpt>
      <trkpt lat="46.7602" lon="5.63057">
        <ele>340.44</ele>
        <time>2022-07-14T09:14:16Z</time>
      </trkpt>
      <trkpt lat="46.76051" lon="5.63113">
        <ele>342.85</ele>
        <time>2022-07-14T09:14:35Z</time>
      </trkpt>
      <trkpt lat="46.76082" lon="5.6317">
        <ele>343.81</ele>
        <time>2022-07-14T09:14:53Z</time>
      </trkpt>
      <trkpt lat="46.76094" lon="5.63232">
        <ele>346.21</ele>
        <time>2022-07-14T09:15:10Z</time>
      </trkpt>
      <trkpt lat="46.76135" lon="5.63281">
        <ele>348.13</ele>
        <time>2022-07-14T09:15:30Z</time>
      </trkpt>
      <trkpt lat="46.76165" lon="5.633">
        <ele>349.1</ele>
        <time>2022-07-14T09:15:46Z</time>
      </trkpt>
      <trkpt lat="46.76164" lon="5.63298">
        <ele>349.58</ele>
        <time>2022-07-14T09:16:16Z</time>
      </trkpt>
      <trkpt lat="46.76164" lon="5.63298">
        <ele>349.58</ele>
        <time>2022-07-14T09:16:47Z</time>
      </trkpt>
      <trkpt lat="46.76163" lon="5.63299">
        <ele>349.1</ele>
        <time>2022-07-14T09:17:20Z</time>
      </trkpt>
      <trkpt lat="46.76166" lon="5.63297">
        <ele>349.58</ele>
        <time>2022-07-14T09:17:32Z</time>
      </trkpt>
      <trkpt lat="46.76169" lon="5.63297">
        <ele>349.58</ele>
        <time>2022-07-14T09:17:34Z</time>
      </trkpt>
      <trkpt lat="46.7617" lon="5.63297">
        <ele>349.58</ele>
        <time>2022-07-14T09:17:35Z</time>
      </trkpt>
      <trkpt lat="46.76172" lon="5.63298">
        <ele>349.58</ele>
        <time>2022-07-14T09:17:36Z</time>
      </trkpt>
      <trkpt lat="46.76174" lon="5.63298">
        <ele>350.06</ele>
        <time>2022-07-14T09:17:37Z</time>
      </trkpt>
      <trkpt lat="46.76177" lon="5.633">
        <ele>349.58</ele>
        <time>2022-07-14T09:17:38Z</time>
      </trkpt>
      <trkpt lat="46.76218" lon="5.63335">
        <ele>351.5</ele>
        <time>2022-07-14T09:17:57Z</time>
      </trkpt>
      <trkpt lat="46.76247" lon="5.63372">
        <ele>353.9</ele>
        <time>2022-07-14T09:18:13Z</time>
      </trkpt>
      <trkpt lat="46.76279" lon="5.63409">
        <ele>355.83</ele>
        <time>2022-07-14T09:18:29Z</time>
      </trkpt>
      <trkpt lat="46.76297" lon="5.63448">
        <ele>356.31</ele>
        <time>2022-07-14T09:18:42Z</time>
      </trkpt>
      <trkpt lat="46.76318" lon="5.63498">
        <ele>357.27</ele>
        <time>2022-07-14T09:18:59Z</time>
      </trkpt>
      <trkpt lat="46.76337" lon="5.63539">
        <ele>360.15</ele>
        <time>2022-07-14T09:19:15Z</time>
      </trkpt>
      <trkpt lat="46.76354" lon="5.63581">
        <ele>361.59</ele>
        <time>2022-07-14T09:19:32Z</time>
      </trkpt>
      <trkpt lat="46.76385" lon="5.63599">
        <ele>363.04</ele>
        <time>2022-07-14T09:19:49Z</time>
      </trkpt>
      <trkpt lat="46.7642" lon="5.63604">
        <ele>364.96</ele>
        <time>2022-07-14T09:20:04Z</time>
      </trkpt>
      <trkpt lat="46.76467" lon="5.63621">
        <ele>366.4</ele>
        <time>2022-07-14T09:20:21Z</time>
      </trkpt>
      <trkpt lat="46.76512" lon="5.63639">
        <ele>369.28</ele>
        <time>2022-07-14T09:20:39Z</time>
      </trkpt>
      <trkpt lat="46.76509" lon="5.63675">
        <ele>371.21</ele>
        <time>2022-07-14T09:20:51Z</time>
      </trkpt>
      <trkpt lat="46.76478" lon="5.63687">
        <ele>372.65</ele>
        <time>2022-07-14T09:21:04Z</time>
      </trkpt>
      <trkpt lat="46.76432" lon="5.63699">
        <ele>375.05</ele>
        <time>2022-07-14T09:21:23Z</time>
      </trkpt>
      <trkpt lat="46.76394" lon="5.63676">
        <ele>377.45</ele>
        <time>2022-07-14T09:21:40Z</time>
      </trkpt>
      <trkpt lat="46.76363" lon="5.63646">
        <ele>379.86</ele>
        <time>2022-07-14T09:21:57Z</time>
      </trkpt>
      <trkpt lat="46.76328" lon="5.63611">
        <ele>382.26</ele>
        <time>2022-07-14T09:22:12Z</time>
      </trkpt>
      <trkpt lat="46.76284" lon="5.6359">
        <ele>384.66</ele>
        <time>2022-07-14T09:22:30Z</time>
      </trkpt>
      <trkpt lat="46.7625" lon="5.63574">
        <ele>386.59</ele>
        <time>2022-07-14T09:22:45Z</time>
      </trkpt>
      <trkpt lat="46.7623" lon="5.63545">
        <ele>388.51</ele>
        <time>2022-07-14T09:22:58Z</time>
      </trkpt>
      <trkpt lat="46.76203" lon="5.63501">
        <ele>389.95</ele>
        <time>2022-07-14T09:23:13Z</time>
      </trkpt>
      <trkpt lat="46.76165" lon="5.63468">
        <ele>391.39</ele>
        <time>2022-07-14T09:23:29Z</time>
      </trkpt>
      <trkpt lat="46.7612" lon="5.63442">
        <ele>392.36</ele>
        <time>2022-07-14T09:23:47Z</time>
      </trkpt>
      <trkpt lat="46.76117" lon="5.63441">
        <ele>392.36</ele>
        <time>2022-07-14T09:23:48Z</time>
      </trkpt>
      <trkpt lat="46.76114" lon="5.6344">
        <ele>392.84</ele>
        <time>2022-07-14T09:23:49Z</time>
      </trkpt>
      <trkpt lat="46.76076" lon="5.63422">
        <ele>394.28</ele>
        <time>2022-07-14T09:24:03Z</time>
      </trkpt>
      <trkpt lat="46.76026" lon="5.63418">
        <ele>396.68</ele>
        <time>2022-07-14T09:24:21Z</time>
      </trkpt>
      <trkpt lat="46.75979" lon="5.63405">
        <ele>398.6</ele>
        <time>2022-07-14T09:24:40Z</time>
      </trkpt>
      <trkpt lat="46.75942" lon="5.63375">
        <ele>400.53</ele>
        <time>2022-07-14T09:24:56Z</time>
      </trkpt>
      <trkpt lat="46.7591" lon="5.63345">
        <ele>402.93</ele>
        <time>2022-07-14T09:25:12Z</time>
      </trkpt>
      <trkpt lat="46.75878" lon="5.63312">
        <ele>405.81</ele>
        <time>2022-07-14T09:25:28Z</time>
      </trkpt>
      <trkpt lat="46.75846" lon="5.63283">
        <ele>407.74</ele>
        <time>2022-07-14T09:25:43Z</time>
      </trkpt>
      <trkpt lat="46.75809" lon="5.63253">
        <ele>410.14</ele>
        <time>2022-07-14T09:26:02Z</time>
      </trkpt>
      <trkpt lat="46.75775" lon="5.63233">
        <ele>413.5</ele>
        <time>2022-07-14T09:26:19Z</time>
      </trkpt>
      <trkpt lat="46.75749" lon="5.63213">
        <ele>414.95</ele>
        <time>2022-07-14T09:26:35Z</time>
      </trkpt>
      <trkpt lat="46.75726" lon="5.63175">
        <ele>418.31</ele>
        <time>2022-07-14T09:26:52Z</time>
      </trkpt>
      <trkpt lat="46.75707" lon="5.63145">
        <ele>418.79</ele>
        <time>2022-07-14T09:27:06Z</time>
      </trkpt>
      <trkpt lat="46.75695" lon="5.63112">
        <ele>421.68</ele>
        <time>2022-07-14T09:27:23Z</time>
      </trkpt>
      <trkpt lat="46.75691" lon="5.63069">
        <ele>423.12</ele>
        <time>2022-07-14T09:27:38Z</time>
      </trkpt>
      <trkpt lat="46.75677" lon="5.63025">
        <ele>424.56</ele>
        <time>2022-07-14T09:27:54Z</time>
      </trkpt>
      <trkpt lat="46.75652" lon="5.62985">
        <ele>427.44</ele>
        <time>2022-07-14T09:28:11Z</time>
      </trkpt>
      <trkpt lat="46.75626" lon="5.62941">
        <ele>430.81</ele>
        <time>2022-07-14T09:28:28Z</time>
      </trkpt>
      <trkpt lat="46.75601" lon="5.62878">
        <ele>433.21</ele>
        <time>2022-07-14T09:28:46Z</time>
      </trkpt>
      <trkpt lat="46.75593" lon="5.6283">
        <ele>436.58</ele>
        <time>2022-07-14T09:29:00Z</time>
      </trkpt>
      <trkpt lat="46.75593" lon="5.62761">
        <ele>439.46</ele>
        <time>2022-07-14T09:29:19Z</time>
      </trkpt>
      <trkpt lat="46.7561" lon="5.62721">
        <ele>441.38</ele>
        <time>2022-07-14T09:29:34Z</time>
      </trkpt>
      <trkpt lat="46.75638" lon="5.62714">
        <ele>443.31</ele>
        <time>2022-07-14T09:29:49Z</time>
      </trkpt>
      <trkpt lat="46.75671" lon="5.62721">
        <ele>445.23</ele>
        <time>2022-07-14T09:30:05Z</time>
      </trkpt>
      <trkpt lat="46.7571" lon="5.62713">
        <ele>447.63</ele>
        <time>2022-07-14T09:30:21Z</time>
      </trkpt>
      <trkpt lat="46.7574" lon="5.62694">
        <ele>449.07</ele>
        <time>2022-07-14T09:30:36Z</time>
      </trkpt>
      <trkpt lat="46.75744" lon="5.62692">
        <ele>449.07</ele>
        <time>2022-07-14T09:30:46Z</time>
      </trkpt>
      <trkpt lat="46.75745" lon="5.62695">
        <ele>448.59</ele>
        <time>2022-07-14T09:31:14Z</time>
      </trkpt>
      <trkpt lat="46.75747" lon="5.62691">
        <ele>449.07</ele>
        <time>2022-07-14T09:31:49Z</time>
      </trkpt>
      <trkpt lat="46.75746" lon="5.62692">
        <ele>449.55</ele>
        <time>2022-07-14T09:32:23Z</time>
      </trkpt>
      <trkpt lat="46.75747" lon="5.6269">
        <ele>449.07</ele>
        <time>2022-07-14T09:32:58Z</time>
      </trkpt>
      <trkpt lat="46.75745" lon="5.6269">
        <ele>449.07</ele>
        <time>2022-07-14T09:33:38Z</time>
      </trkpt>
      <trkpt lat="46.75745" lon="5.62694">
        <ele>449.07</ele>
        <time>2022-07-14T09:34:07Z</time>
      </trkpt>
      <trkpt lat="46.75745" lon="5.62696">
        <ele>448.59</ele>
        <time>2022-07-14T09:34:51Z</time>
      </trkpt>
      <trkpt lat="46.7574" lon="5.62693">
        <ele>449.55</ele>
        <time>2022-07-14T09:35:20Z</time>
      </trkpt>
      <trkpt lat="46.75738" lon="5.62691">
        <ele>449.07</ele>
        <time>2022-07-14T09:35:25Z</time>
      </trkpt>
      <trkpt lat="46.75732" lon="5.62693">
        <ele>449.07</ele>
        <time>2022-07-14T09:35:29Z</time>
      </trkpt>
      <trkpt lat="46.75731" lon="5.62691">
        <ele>449.07</ele>
        <time>2022-07-14T09:35:30Z</time>
      </trkpt>
      <trkpt lat="46.7573" lon="5.62689">
        <ele>449.07</ele>
        <time>2022-07-14T09:35:31Z</time>
      </trkpt>
      <trkpt lat="46.7573" lon="5.62686">
        <ele>449.07</ele>
        <time>2022-07-14T09:35:32Z</time>
      </trkpt>
      <trkpt lat="46.75728" lon="5.62684">
        <ele>449.55</ele>
        <time>2022-07-14T09:35:33Z</time>
      </trkpt>
      <trkpt lat="46.75727" lon="5.62683">
        <ele>450.03</ele>
        <time>2022-07-14T09:35:34Z</time>
      </trkpt>
      <trkpt lat="46.75725" lon="5.62681">
        <ele>449.55</ele>
        <time>2022-07-14T09:35:35Z</time>
      </trkpt>
      <trkpt lat="46.75723" lon="5.62681">
        <ele>449.55</ele>
        <time>2022-07-14T09:35:36Z</time>
      </trkpt>
      <trkpt lat="46.75721" lon="5.6268">
        <ele>450.03</ele>
        <time>2022-07-14T09:35:37Z</time>
      </trkpt>
      <trkpt lat="46.75719" lon="5.6268">
        <ele>449.55</ele>
        <time>2022-07-14T09:35:38Z</time>
      </trkpt>
      <trkpt lat="46.75718" lon="5.62679">
        <ele>450.03</ele>
        <time>2022-07-14T09:35:39Z</time>
      </trkpt>
      <trkpt lat="46.75716" lon="5.62679">
        <ele>449.55</ele>
        <time>2022-07-14T09:35:40Z</time>
      </trkpt>
      <trkpt lat="46.75715" lon="5.62679">
        <ele>450.03</ele>
        <time>2022-07-14T09:35:41Z</time>
      </trkpt>
      <trkpt lat="46.75713" lon="5.62678">
        <ele>451</ele>
        <time>2022-07-14T09:35:42Z</time>
      </trkpt>
      <trkpt lat="46.75689" lon="5.62664">
        <ele>451.96</ele>
        <time>2022-07-14T09:35:55Z</time>
      </trkpt>
      <trkpt lat="46.75659" lon="5.6263">
        <ele>452.92</ele>
        <time>2022-07-14T09:36:15Z</time>
      </trkpt>
      <trkpt lat="46.7565" lon="5.62613">
        <ele>454.84</ele>
        <time>2022-07-14T09:36:28Z</time>
      </trkpt>
      <trkpt lat="46.7565" lon="5.62612">
        <ele>454.36</ele>
        <time>2022-07-14T09:36:29Z</time>
      </trkpt>
      <trkpt lat="46.75651" lon="5.62607">
        <ele>454.36</ele>
        <time>2022-07-14T09:36:39Z</time>
      </trkpt>
      <trkpt lat="46.75651" lon="5.62606">
        <ele>454.84</ele>
        <time>2022-07-14T09:36:40Z</time>
      </trkpt>
      <trkpt lat="46.75652" lon="5.62604">
        <ele>454.36</ele>
        <time>2022-07-14T09:36:41Z</time>
      </trkpt>
      <trkpt lat="46.75653" lon="5.62602">
        <ele>455.32</ele>
        <time>2022-07-14T09:36:42Z</time>
      </trkpt>
      <trkpt lat="46.75653" lon="5.626">
        <ele>455.32</ele>
        <time>2022-07-14T09:36:43Z</time>
      </trkpt>
      <trkpt lat="46.75658" lon="5.62583">
        <ele>456.28</ele>
        <time>2022-07-14T09:36:52Z</time>
      </trkpt>
      <trkpt lat="46.75658" lon="5.62582">
        <ele>456.28</ele>
        <time>2022-07-14T09:36:53Z</time>
      </trkpt>
      <trkpt lat="46.75658" lon="5.6258">
        <ele>456.28</ele>
        <time>2022-07-14T09:36:54Z</time>
      </trkpt>
      <trkpt lat="46.75658" lon="5.62578">
        <ele>456.28</ele>
        <time>2022-07-14T09:36:55Z</time>
      </trkpt>
      <trkpt lat="46.75657" lon="5.62576">
        <ele>456.28</ele>
        <time>2022-07-14T09:36:56Z</time>
      </trkpt>
      <trkpt lat="46.75658" lon="5.62533">
        <ele>455.8</ele>
        <time>2022-07-14T09:37:10Z</time>
      </trkpt>
      <trkpt lat="46.75658" lon="5.6253">
        <ele>455.8</ele>
        <time>2022-07-14T09:37:11Z</time>
      </trkpt>
      <trkpt lat="46.75658" lon="5.62529">
        <ele>455.32</ele>
        <time>2022-07-14T09:37:12Z</time>
      </trkpt>
      <trkpt lat="46.75657" lon="5.62522">
        <ele>456.28</ele>
        <time>2022-07-14T09:37:16Z</time>
      </trkpt>
      <trkpt lat="46.75657" lon="5.62521">
        <ele>455.32</ele>
        <time>2022-07-14T09:37:33Z</time>
      </trkpt>
      <trkpt lat="46.75656" lon="5.62519">
        <ele>455.32</ele>
        <time>2022-07-14T09:37:57Z</time>
      </trkpt>
      <trkpt lat="46.75656" lon="5.62513">
        <ele>455.32</ele>
        <time>2022-07-14T09:38:10Z</time>
      </trkpt>
      <trkpt lat="46.75655" lon="5.62511">
        <ele>455.8</ele>
        <time>2022-07-14T09:38:11Z</time>
      </trkpt>
      <trkpt lat="46.75655" lon="5.62509">
        <ele>455.32</ele>
        <time>2022-07-14T09:38:12Z</time>
      </trkpt>
      <trkpt lat="46.75654" lon="5.62507">
        <ele>455.8</ele>
        <time>2022-07-14T09:38:13Z</time>
      </trkpt>
      <trkpt lat="46.75652" lon="5.62504">
        <ele>455.8</ele>
        <time>2022-07-14T09:38:14Z</time>
      </trkpt>
      <trkpt lat="46.75651" lon="5.62501">
        <ele>455.8</ele>
        <time>2022-07-14T09:38:15Z</time>
      </trkpt>
      <trkpt lat="46.75649" lon="5.62498">
        <ele>455.8</ele>
        <time>2022-07-14T09:38:16Z</time>
      </trkpt>
      <trkpt lat="46.75619" lon="5.62476">
        <ele>454.84</ele>
        <time>2022-07-14T09:38:30Z</time>
      </trkpt>
      <trkpt lat="46.75593" lon="5.62455">
        <ele>453.4</ele>
        <time>2022-07-14T09:38:41Z</time>
      </trkpt>
      <trkpt lat="46.75593" lon="5.62453">
        <ele>453.88</ele>
        <time>2022-07-14T09:38:42Z</time>
      </trkpt>
      <trkpt lat="46.7559" lon="5.62449">
        <ele>453.4</ele>
        <time>2022-07-14T09:38:56Z</time>
      </trkpt>
      <trkpt lat="46.7559" lon="5.62451">
        <ele>452.92</ele>
        <time>2022-07-14T09:39:23Z</time>
      </trkpt>
      <trkpt lat="46.75586" lon="5.62447">
        <ele>452.92</ele>
        <time>2022-07-14T09:39:45Z</time>
      </trkpt>
      <trkpt lat="46.75585" lon="5.62444">
        <ele>452.92</ele>
        <time>2022-07-14T09:39:46Z</time>
      </trkpt>
      <trkpt lat="46.75579" lon="5.62439">
        <ele>452.92</ele>
        <time>2022-07-14T09:39:58Z</time>
      </trkpt>
      <trkpt lat="46.75578" lon="5.62438">
        <ele>452.44</ele>
        <time>2022-07-14T09:39:59Z</time>
      </trkpt>
      <trkpt lat="46.7555" lon="5.62415">
        <ele>451.48</ele>
        <time>2022-07-14T09:40:12Z</time>
      </trkpt>
      <trkpt lat="46.75524" lon="5.62398">
        <ele>449.55</ele>
        <time>2022-07-14T09:40:22Z</time>
      </trkpt>
      <trkpt lat="46.75522" lon="5.624">
        <ele>449.07</ele>
        <time>2022-07-14T09:40:23Z</time>
      </trkpt>
      <trkpt lat="46.75521" lon="5.62401">
        <ele>449.07</ele>
        <time>2022-07-14T09:40:24Z</time>
      </trkpt>
      <trkpt lat="46.75518" lon="5.62401">
        <ele>449.07</ele>
        <time>2022-07-14T09:40:27Z</time>
      </trkpt>
      <trkpt lat="46.75517" lon="5.62401">
        <ele>449.07</ele>
        <time>2022-07-14T09:40:28Z</time>
      </trkpt>
      <trkpt lat="46.75516" lon="5.624">
        <ele>449.07</ele>
        <time>2022-07-14T09:40:29Z</time>
      </trkpt>
      <trkpt lat="46.75515" lon="5.62398">
        <ele>449.07</ele>
        <time>2022-07-14T09:40:30Z</time>
      </trkpt>
      <trkpt lat="46.75513" lon="5.62397">
        <ele>448.59</ele>
        <time>2022-07-14T09:40:31Z</time>
      </trkpt>
      <trkpt lat="46.75481" lon="5.62377">
        <ele>446.67</ele>
        <time>2022-07-14T09:40:44Z</time>
      </trkpt>
      <trkpt lat="46.75479" lon="5.62379">
        <ele>446.19</ele>
        <time>2022-07-14T09:40:45Z</time>
      </trkpt>
      <trkpt lat="46.75477" lon="5.62381">
        <ele>446.67</ele>
        <time>2022-07-14T09:40:46Z</time>
      </trkpt>
      <trkpt lat="46.75475" lon="5.62382">
        <ele>445.71</ele>
        <time>2022-07-14T09:40:47Z</time>
      </trkpt>
      <trkpt lat="46.75472" lon="5.62382">
        <ele>445.71</ele>
        <time>2022-07-14T09:40:48Z</time>
      </trkpt>
      <trkpt lat="46.75469" lon="5.62383">
        <ele>446.19</ele>
        <time>2022-07-14T09:40:49Z</time>
      </trkpt>
      <trkpt lat="46.75467" lon="5.62385">
        <ele>445.71</ele>
        <time>2022-07-14T09:40:50Z</time>
      </trkpt>
      <trkpt lat="46.75453" lon="5.62399">
        <ele>446.19</ele>
        <time>2022-07-14T09:41:00Z</time>
      </trkpt>
      <trkpt lat="46.75452" lon="5.624">
        <ele>446.19</ele>
        <time>2022-07-14T09:41:01Z</time>
      </trkpt>
      <trkpt lat="46.75451" lon="5.62402">
        <ele>446.19</ele>
        <time>2022-07-14T09:41:02Z</time>
      </trkpt>
      <trkpt lat="46.75451" lon="5.62404">
        <ele>446.19</ele>
        <time>2022-07-14T09:41:03Z</time>
      </trkpt>
      <trkpt lat="46.7545" lon="5.62406">
        <ele>446.67</ele>
        <time>2022-07-14T09:41:04Z</time>
      </trkpt>
      <trkpt lat="46.75449" lon="5.62407">
        <ele>446.19</ele>
        <time>2022-07-14T09:41:05Z</time>
      </trkpt>
      <trkpt lat="46.75439" lon="5.62432">
        <ele>448.59</ele>
        <time>2022-07-14T09:41:21Z</time>
      </trkpt>
      <trkpt lat="46.75436" lon="5.62436">
        <ele>448.59</ele>
        <time>2022-07-14T09:41:26Z</time>
      </trkpt>
      <trkpt lat="46.75419" lon="5.62447">
        <ele>450.52</ele>
        <time>2022-07-14T09:41:40Z</time>
      </trkpt>
      <trkpt lat="46.75412" lon="5.62449">
        <ele>451</ele>
        <time>2022-07-14T09:41:45Z</time>
      </trkpt>
      <trkpt lat="46.75412" lon="5.62451">
        <ele>450.52</ele>
        <time>2022-07-14T09:41:46Z</time>
      </trkpt>
      <trkpt lat="46.75413" lon="5.62453">
        <ele>451</ele>
        <time>2022-07-14T09:41:47Z</time>
      </trkpt>
      <trkpt lat="46.75413" lon="5.62455">
        <ele>451</ele>
        <time>2022-07-14T09:41:48Z</time>
      </trkpt>
      <trkpt lat="46.75414" lon="5.62457">
        <ele>451</ele>
        <time>2022-07-14T09:41:49Z</time>
      </trkpt>
      <trkpt lat="46.75414" lon="5.62458">
        <ele>451.48</ele>
        <time>2022-07-14T09:41:50Z</time>
      </trkpt>
      <trkpt lat="46.75421" lon="5.62486">
        <ele>452.92</ele>
        <time>2022-07-14T09:42:05Z</time>
      </trkpt>
      <trkpt lat="46.75421" lon="5.62483">
        <ele>452.92</ele>
        <time>2022-07-14T09:42:25Z</time>
      </trkpt>
      <trkpt lat="46.75425" lon="5.62485">
        <ele>452.44</ele>
        <time>2022-07-14T09:42:30Z</time>
      </trkpt>
      <trkpt lat="46.75425" lon="5.62484">
        <ele>452.92</ele>
        <time>2022-07-14T09:42:31Z</time>
      </trkpt>
      <trkpt lat="46.75425" lon="5.62483">
        <ele>452.92</ele>
        <time>2022-07-14T09:42:32Z</time>
      </trkpt>
      <trkpt lat="46.7542" lon="5.62476">
        <ele>452.44</ele>
        <time>2022-07-14T09:42:38Z</time>
      </trkpt>
      <trkpt lat="46.75419" lon="5.62476">
        <ele>452.44</ele>
        <time>2022-07-14T09:42:39Z</time>
      </trkpt>
      <trkpt lat="46.75418" lon="5.62476">
        <ele>452.44</ele>
        <time>2022-07-14T09:42:40Z</time>
      </trkpt>
      <trkpt lat="46.75417" lon="5.62475">
        <ele>452.44</ele>
        <time>2022-07-14T09:42:41Z</time>
      </trkpt>
      <trkpt lat="46.75416" lon="5.62474">
        <ele>452.92</ele>
        <time>2022-07-14T09:42:42Z</time>
      </trkpt>
      <trkpt lat="46.75416" lon="5.62471">
        <ele>451.96</ele>
        <time>2022-07-14T09:42:43Z</time>
      </trkpt>
      <trkpt lat="46.75415" lon="5.62468">
        <ele>452.44</ele>
        <time>2022-07-14T09:42:44Z</time>
      </trkpt>
      <trkpt lat="46.75396" lon="5.62442">
        <ele>450.52</ele>
        <time>2022-07-14T09:42:54Z</time>
      </trkpt>
      <trkpt lat="46.75377" lon="5.6244">
        <ele>448.59</ele>
        <time>2022-07-14T09:43:07Z</time>
      </trkpt>
      <trkpt lat="46.75365" lon="5.62438">
        <ele>448.59</ele>
        <time>2022-07-14T09:43:18Z</time>
      </trkpt>
      <trkpt lat="46.75364" lon="5.6244">
        <ele>448.59</ele>
        <time>2022-07-14T09:43:19Z</time>
      </trkpt>
      <trkpt lat="46.75363" lon="5.6244">
        <ele>448.59</ele>
        <time>2022-07-14T09:43:20Z</time>
      </trkpt>
      <trkpt lat="46.7536" lon="5.62441">
        <ele>448.59</ele>
        <time>2022-07-14T09:43:31Z</time>
      </trkpt>
      <trkpt lat="46.7536" lon="5.6244">
        <ele>447.15</ele>
        <time>2022-07-14T10:50:52Z</time>
      </trkpt>
      <trkpt lat="46.75659" lon="5.62529">
        <ele>450.03</ele>
        <time>2022-07-14T10:51:16Z</time>
      </trkpt>
      <trkpt lat="46.75655" lon="5.62519">
        <ele>450.03</ele>
        <time>2022-07-14T10:51:21Z</time>
      </trkpt>
      <trkpt lat="46.75634" lon="5.62486">
        <ele>453.4</ele>
        <time>2022-07-14T10:51:35Z</time>
      </trkpt>
      <trkpt lat="46.75603" lon="5.62472">
        <ele>453.4</ele>
        <time>2022-07-14T10:51:46Z</time>
      </trkpt>
      <trkpt lat="46.75599" lon="5.62475">
        <ele>453.4</ele>
        <time>2022-07-14T10:51:47Z</time>
      </trkpt>
      <trkpt lat="46.75597" lon="5.62479">
        <ele>452.92</ele>
        <time>2022-07-14T10:51:48Z</time>
      </trkpt>
      <trkpt lat="46.75574" lon="5.62515">
        <ele>453.4</ele>
        <time>2022-07-14T10:51:57Z</time>
      </trkpt>
      <trkpt lat="46.75571" lon="5.62519">
        <ele>453.4</ele>
        <time>2022-07-14T10:51:58Z</time>
      </trkpt>
      <trkpt lat="46.75538" lon="5.62561">
        <ele>453.88</ele>
        <time>2022-07-14T10:52:11Z</time>
      </trkpt>
      <trkpt lat="46.75535" lon="5.62567">
        <ele>455.32</ele>
        <time>2022-07-14T10:52:16Z</time>
      </trkpt>
      <trkpt lat="46.75522" lon="5.62584">
        <ele>456.76</ele>
        <time>2022-07-14T10:52:31Z</time>
      </trkpt>
      <trkpt lat="46.75506" lon="5.62594">
        <ele>457.24</ele>
        <time>2022-07-14T10:52:45Z</time>
      </trkpt>
      <trkpt lat="46.75501" lon="5.62597">
        <ele>457.72</ele>
        <time>2022-07-14T10:52:49Z</time>
      </trkpt>
      <trkpt lat="46.755" lon="5.62597">
        <ele>458.21</ele>
        <time>2022-07-14T10:52:50Z</time>
      </trkpt>
      <trkpt lat="46.75498" lon="5.62597">
        <ele>458.21</ele>
        <time>2022-07-14T10:52:51Z</time>
      </trkpt>
      <trkpt lat="46.75497" lon="5.62598">
        <ele>457.72</ele>
        <time>2022-07-14T10:52:52Z</time>
      </trkpt>
      <trkpt lat="46.75496" lon="5.62599">
        <ele>458.69</ele>
        <time>2022-07-14T10:52:53Z</time>
      </trkpt>
      <trkpt lat="46.75496" lon="5.626">
        <ele>458.69</ele>
        <time>2022-07-14T10:52:54Z</time>
      </trkpt>
      <trkpt lat="46.75494" lon="5.62601">
        <ele>458.69</ele>
        <time>2022-07-14T10:52:55Z</time>
      </trkpt>
      <trkpt lat="46.75493" lon="5.62602">
        <ele>458.69</ele>
        <time>2022-07-14T10:52:56Z</time>
      </trkpt>
      <trkpt lat="46.75492" lon="5.62602">
        <ele>459.17</ele>
        <time>2022-07-14T10:52:57Z</time>
      </trkpt>
      <trkpt lat="46.75473" lon="5.62622">
        <ele>460.61</ele>
        <time>2022-07-14T10:53:15Z</time>
      </trkpt>
      <trkpt lat="46.75472" lon="5.62623">
        <ele>461.09</ele>
        <time>2022-07-14T10:53:16Z</time>
      </trkpt>
      <trkpt lat="46.75471" lon="5.62625">
        <ele>460.61</ele>
        <time>2022-07-14T10:53:17Z</time>
      </trkpt>
      <trkpt lat="46.75457" lon="5.62637">
        <ele>461.57</ele>
        <time>2022-07-14T10:53:30Z</time>
      </trkpt>
      <trkpt lat="46.75456" lon="5.62637">
        <ele>462.05</ele>
        <time>2022-07-14T10:53:31Z</time>
      </trkpt>
      <trkpt lat="46.75453" lon="5.62634">
        <ele>461.57</ele>
        <time>2022-07-14T10:53:35Z</time>
      </trkpt>
      <trkpt lat="46.75452" lon="5.62635">
        <ele>461.57</ele>
        <time>2022-07-14T10:53:36Z</time>
      </trkpt>
      <trkpt lat="46.75451" lon="5.62637">
        <ele>461.57</ele>
        <time>2022-07-14T10:53:37Z</time>
      </trkpt>
      <trkpt lat="46.7545" lon="5.62638">
        <ele>462.53</ele>
        <time>2022-07-14T10:53:38Z</time>
      </trkpt>
      <trkpt lat="46.75449" lon="5.6264">
        <ele>462.53</ele>
        <time>2022-07-14T10:53:39Z</time>
      </trkpt>
      <trkpt lat="46.75448" lon="5.62641">
        <ele>462.05</ele>
        <time>2022-07-14T10:53:40Z</time>
      </trkpt>
      <trkpt lat="46.75442" lon="5.62647">
        <ele>462.53</ele>
        <time>2022-07-14T10:53:45Z</time>
      </trkpt>
      <trkpt lat="46.75441" lon="5.62648">
        <ele>462.53</ele>
        <time>2022-07-14T10:53:46Z</time>
      </trkpt>
      <trkpt lat="46.75432" lon="5.62656">
        <ele>463.01</ele>
        <time>2022-07-14T10:53:59Z</time>
      </trkpt>
      <trkpt lat="46.7542" lon="5.62665">
        <ele>463.97</ele>
        <time>2022-07-14T10:54:15Z</time>
      </trkpt>
      <trkpt lat="46.75409" lon="5.62672">
        <ele>464.93</ele>
        <time>2022-07-14T10:54:29Z</time>
      </trkpt>
      <trkpt lat="46.75408" lon="5.62669">
        <ele>464.93</ele>
        <time>2022-07-14T10:54:49Z</time>
      </trkpt>
      <trkpt lat="46.75407" lon="5.62671">
        <ele>464.93</ele>
        <time>2022-07-14T10:55:07Z</time>
      </trkpt>
      <trkpt lat="46.75407" lon="5.62672">
        <ele>465.42</ele>
        <time>2022-07-14T10:55:34Z</time>
      </trkpt>
      <trkpt lat="46.75406" lon="5.6267">
        <ele>464.93</ele>
        <time>2022-07-14T10:56:00Z</time>
      </trkpt>
      <trkpt lat="46.75406" lon="5.62669">
        <ele>464.45</ele>
        <time>2022-07-14T10:56:25Z</time>
      </trkpt>
      <trkpt lat="46.75405" lon="5.6267">
        <ele>464.93</ele>
        <time>2022-07-14T10:56:26Z</time>
      </trkpt>
      <trkpt lat="46.75403" lon="5.62675">
        <ele>465.42</ele>
        <time>2022-07-14T10:56:29Z</time>
      </trkpt>
      <trkpt lat="46.75402" lon="5.62676">
        <ele>465.42</ele>
        <time>2022-07-14T10:56:30Z</time>
      </trkpt>
      <trkpt lat="46.75401" lon="5.62677">
        <ele>464.93</ele>
        <time>2022-07-14T10:56:31Z</time>
      </trkpt>
      <trkpt lat="46.754" lon="5.62678">
        <ele>465.42</ele>
        <time>2022-07-14T10:56:32Z</time>
      </trkpt>
      <trkpt lat="46.75398" lon="5.62679">
        <ele>464.93</ele>
        <time>2022-07-14T10:56:33Z</time>
      </trkpt>
      <trkpt lat="46.75397" lon="5.6268">
        <ele>465.42</ele>
        <time>2022-07-14T10:56:34Z</time>
      </trkpt>
      <trkpt lat="46.75396" lon="5.62682">
        <ele>464.93</ele>
        <time>2022-07-14T10:56:35Z</time>
      </trkpt>
      <trkpt lat="46.75395" lon="5.62683">
        <ele>465.42</ele>
        <time>2022-07-14T10:56:36Z</time>
      </trkpt>
      <trkpt lat="46.75379" lon="5.62701">
        <ele>467.82</ele>
        <time>2022-07-14T10:56:52Z</time>
      </trkpt>
      <trkpt lat="46.75368" lon="5.62717">
        <ele>467.82</ele>
        <time>2022-07-14T10:57:02Z</time>
      </trkpt>
      <trkpt lat="46.75367" lon="5.6272">
        <ele>468.3</ele>
        <time>2022-07-14T10:57:03Z</time>
      </trkpt>
      <trkpt lat="46.75367" lon="5.62723">
        <ele>467.82</ele>
        <time>2022-07-14T10:57:04Z</time>
      </trkpt>
      <trkpt lat="46.75367" lon="5.62725">
        <ele>468.3</ele>
        <time>2022-07-14T10:57:05Z</time>
      </trkpt>
      <trkpt lat="46.75366" lon="5.62728">
        <ele>467.82</ele>
        <time>2022-07-14T10:57:06Z</time>
      </trkpt>
      <trkpt lat="46.75365" lon="5.6273">
        <ele>467.82</ele>
        <time>2022-07-14T10:57:07Z</time>
      </trkpt>
      <trkpt lat="46.75364" lon="5.62733">
        <ele>468.3</ele>
        <time>2022-07-14T10:57:08Z</time>
      </trkpt>
      <trkpt lat="46.75364" lon="5.62735">
        <ele>468.3</ele>
        <time>2022-07-14T10:57:09Z</time>
      </trkpt>
      <trkpt lat="46.75364" lon="5.62738">
        <ele>467.82</ele>
        <time>2022-07-14T10:57:10Z</time>
      </trkpt>
      <trkpt lat="46.75363" lon="5.62741">
        <ele>467.82</ele>
        <time>2022-07-14T10:57:11Z</time>
      </trkpt>
      <trkpt lat="46.75363" lon="5.62745">
        <ele>468.78</ele>
        <time>2022-07-14T10:57:12Z</time>
      </trkpt>
      <trkpt lat="46.75369" lon="5.6279">
        <ele>468.78</ele>
        <time>2022-07-14T10:57:27Z</time>
      </trkpt>
      <trkpt lat="46.75381" lon="5.62832">
        <ele>469.74</ele>
        <time>2022-07-14T10:57:42Z</time>
      </trkpt>
      <trkpt lat="46.75395" lon="5.62866">
        <ele>469.74</ele>
        <time>2022-07-14T10:57:54Z</time>
      </trkpt>
      <trkpt lat="46.75407" lon="5.6293">
        <ele>469.26</ele>
        <time>2022-07-14T10:58:08Z</time>
      </trkpt>
      <trkpt lat="46.75438" lon="5.63034">
        <ele>469.26</ele>
        <time>2022-07-14T10:58:25Z</time>
      </trkpt>
      <trkpt lat="46.75475" lon="5.63104">
        <ele>469.74</ele>
        <time>2022-07-14T10:58:41Z</time>
      </trkpt>
      <trkpt lat="46.75493" lon="5.63158">
        <ele>471.66</ele>
        <time>2022-07-14T10:58:54Z</time>
      </trkpt>
      <trkpt lat="46.75506" lon="5.63221">
        <ele>472.63</ele>
        <time>2022-07-14T10:59:09Z</time>
      </trkpt>
      <trkpt lat="46.75517" lon="5.63312">
        <ele>473.59</ele>
        <time>2022-07-14T10:59:29Z</time>
      </trkpt>
      <trkpt lat="46.75517" lon="5.63401">
        <ele>475.51</ele>
        <time>2022-07-14T10:59:47Z</time>
      </trkpt>
      <trkpt lat="46.75524" lon="5.63487">
        <ele>475.03</ele>
        <time>2022-07-14T11:00:05Z</time>
      </trkpt>
      <trkpt lat="46.75537" lon="5.63602">
        <ele>474.55</ele>
        <time>2022-07-14T11:00:22Z</time>
      </trkpt>
      <trkpt lat="46.75557" lon="5.63729">
        <ele>475.03</ele>
        <time>2022-07-14T11:00:41Z</time>
      </trkpt>
      <trkpt lat="46.75568" lon="5.63793">
        <ele>476.95</ele>
        <time>2022-07-14T11:00:51Z</time>
      </trkpt>
      <trkpt lat="46.75579" lon="5.63871">
        <ele>476.95</ele>
        <time>2022-07-14T11:01:07Z</time>
      </trkpt>
      <trkpt lat="46.75602" lon="5.63929">
        <ele>479.35</ele>
        <time>2022-07-14T11:01:24Z</time>
      </trkpt>
      <trkpt lat="46.75642" lon="5.63977">
        <ele>481.28</ele>
        <time>2022-07-14T11:01:42Z</time>
      </trkpt>
      <trkpt lat="46.757" lon="5.6403">
        <ele>484.16</ele>
        <time>2022-07-14T11:02:05Z</time>
      </trkpt>
      <trkpt lat="46.75762" lon="5.64095">
        <ele>484.64</ele>
        <time>2022-07-14T11:02:26Z</time>
      </trkpt>
      <trkpt lat="46.75821" lon="5.64194">
        <ele>487.05</ele>
        <time>2022-07-14T11:02:48Z</time>
      </trkpt>
      <trkpt lat="46.75864" lon="5.64286">
        <ele>486.56</ele>
        <time>2022-07-14T11:03:07Z</time>
      </trkpt>
      <trkpt lat="46.75926" lon="5.64403">
        <ele>484.64</ele>
        <time>2022-07-14T11:03:26Z</time>
      </trkpt>
      <trkpt lat="46.75976" lon="5.64538">
        <ele>483.68</ele>
        <time>2022-07-14T11:03:44Z</time>
      </trkpt>
      <trkpt lat="46.76001" lon="5.6467">
        <ele>483.2</ele>
        <time>2022-07-14T11:04:00Z</time>
      </trkpt>
      <trkpt lat="46.76031" lon="5.64811">
        <ele>485.12</ele>
        <time>2022-07-14T11:04:19Z</time>
      </trkpt>
      <trkpt lat="46.7605" lon="5.64894">
        <ele>486.56</ele>
        <time>2022-07-14T11:04:36Z</time>
      </trkpt>
      <trkpt lat="46.76067" lon="5.64957">
        <ele>489.45</ele>
        <time>2022-07-14T11:04:51Z</time>
      </trkpt>
      <trkpt lat="46.76069" lon="5.65027">
        <ele>491.37</ele>
        <time>2022-07-14T11:05:07Z</time>
      </trkpt>
      <trkpt lat="46.76062" lon="5.65099">
        <ele>495.7</ele>
        <time>2022-07-14T11:05:24Z</time>
      </trkpt>
      <trkpt lat="46.76061" lon="5.65104">
        <ele>494.74</ele>
        <time>2022-07-14T11:05:25Z</time>
      </trkpt>
      <trkpt lat="46.76052" lon="5.65187">
        <ele>495.7</ele>
        <time>2022-07-14T11:05:44Z</time>
      </trkpt>
      <trkpt lat="46.76049" lon="5.6526">
        <ele>498.1</ele>
        <time>2022-07-14T11:06:02Z</time>
      </trkpt>
      <trkpt lat="46.76046" lon="5.65338">
        <ele>499.54</ele>
        <time>2022-07-14T11:06:22Z</time>
      </trkpt>
      <trkpt lat="46.76043" lon="5.65417">
        <ele>500.98</ele>
        <time>2022-07-14T11:06:42Z</time>
      </trkpt>
      <trkpt lat="46.76042" lon="5.65486">
        <ele>502.43</ele>
        <time>2022-07-14T11:06:59Z</time>
      </trkpt>
      <trkpt lat="46.7604" lon="5.65554">
        <ele>504.35</ele>
        <time>2022-07-14T11:07:16Z</time>
      </trkpt>
      <trkpt lat="46.76037" lon="5.65609">
        <ele>506.27</ele>
        <time>2022-07-14T11:07:33Z</time>
      </trkpt>
      <trkpt lat="46.76046" lon="5.65653">
        <ele>508.67</ele>
        <time>2022-07-14T11:07:47Z</time>
      </trkpt>
      <trkpt lat="46.76068" lon="5.65691">
        <ele>510.12</ele>
        <time>2022-07-14T11:08:04Z</time>
      </trkpt>
      <trkpt lat="46.7609" lon="5.65723">
        <ele>512.04</ele>
        <time>2022-07-14T11:08:23Z</time>
      </trkpt>
      <trkpt lat="46.76105" lon="5.65741">
        <ele>513.96</ele>
        <time>2022-07-14T11:08:35Z</time>
      </trkpt>
      <trkpt lat="46.76125" lon="5.65762">
        <ele>514.92</ele>
        <time>2022-07-14T11:08:51Z</time>
      </trkpt>
      <trkpt lat="46.76147" lon="5.6578">
        <ele>517.33</ele>
        <time>2022-07-14T11:09:07Z</time>
      </trkpt>
      <trkpt lat="46.76169" lon="5.65796">
        <ele>518.77</ele>
        <time>2022-07-14T11:09:18Z</time>
      </trkpt>
      <trkpt lat="46.76194" lon="5.65813">
        <ele>520.21</ele>
        <time>2022-07-14T11:09:31Z</time>
      </trkpt>
      <trkpt lat="46.76196" lon="5.65814">
        <ele>520.21</ele>
        <time>2022-07-14T11:09:32Z</time>
      </trkpt>
      <trkpt lat="46.76198" lon="5.65816">
        <ele>520.21</ele>
        <time>2022-07-14T11:09:33Z</time>
      </trkpt>
      <trkpt lat="46.762" lon="5.65818">
        <ele>521.17</ele>
        <time>2022-07-14T11:09:34Z</time>
      </trkpt>
      <trkpt lat="46.76202" lon="5.65819">
        <ele>520.69</ele>
        <time>2022-07-14T11:09:35Z</time>
      </trkpt>
      <trkpt lat="46.76204" lon="5.65821">
        <ele>521.17</ele>
        <time>2022-07-14T11:09:36Z</time>
      </trkpt>
      <trkpt lat="46.76232" lon="5.6585">
        <ele>523.09</ele>
        <time>2022-07-14T11:09:50Z</time>
      </trkpt>
      <trkpt lat="46.76253" lon="5.65881">
        <ele>524.54</ele>
        <time>2022-07-14T11:10:03Z</time>
      </trkpt>
      <trkpt lat="46.76279" lon="5.65918">
        <ele>525.98</ele>
        <time>2022-07-14T11:10:17Z</time>
      </trkpt>
      <trkpt lat="46.76297" lon="5.65951">
        <ele>527.9</ele>
        <time>2022-07-14T11:10:31Z</time>
      </trkpt>
      <trkpt lat="46.7632" lon="5.65979">
        <ele>530.3</ele>
        <time>2022-07-14T11:10:45Z</time>
      </trkpt>
      <trkpt lat="46.76344" lon="5.6601">
        <ele>531.75</ele>
        <time>2022-07-14T11:11:00Z</time>
      </trkpt>
      <trkpt lat="46.76379" lon="5.66049">
        <ele>533.19</ele>
        <time>2022-07-14T11:11:14Z</time>
      </trkpt>
      <trkpt lat="46.76399" lon="5.66087">
        <ele>535.59</ele>
        <time>2022-07-14T11:11:29Z</time>
      </trkpt>
      <trkpt lat="46.76424" lon="5.66126">
        <ele>537.03</ele>
        <time>2022-07-14T11:11:44Z</time>
      </trkpt>
      <trkpt lat="46.76447" lon="5.66163">
        <ele>539.92</ele>
        <time>2022-07-14T11:12:01Z</time>
      </trkpt>
      <trkpt lat="46.76475" lon="5.66201">
        <ele>542.32</ele>
        <time>2022-07-14T11:12:16Z</time>
      </trkpt>
      <trkpt lat="46.76511" lon="5.66257">
        <ele>544.24</ele>
        <time>2022-07-14T11:12:34Z</time>
      </trkpt>
      <trkpt lat="46.76532" lon="5.66293">
        <ele>546.65</ele>
        <time>2022-07-14T11:12:47Z</time>
      </trkpt>
      <trkpt lat="46.76546" lon="5.66323">
        <ele>547.61</ele>
        <time>2022-07-14T11:12:59Z</time>
      </trkpt>
      <trkpt lat="46.76567" lon="5.66363">
        <ele>550.01</ele>
        <time>2022-07-14T11:13:15Z</time>
      </trkpt>
      <trkpt lat="46.76589" lon="5.66403">
        <ele>552.9</ele>
        <time>2022-07-14T11:13:30Z</time>
      </trkpt>
      <trkpt lat="46.76607" lon="5.66434">
        <ele>554.34</ele>
        <time>2022-07-14T11:13:45Z</time>
      </trkpt>
      <trkpt lat="46.76617" lon="5.66476">
        <ele>555.78</ele>
        <time>2022-07-14T11:13:58Z</time>
      </trkpt>
      <trkpt lat="46.76606" lon="5.66526">
        <ele>558.18</ele>
        <time>2022-07-14T11:14:12Z</time>
      </trkpt>
      <trkpt lat="46.76583" lon="5.66572">
        <ele>560.59</ele>
        <time>2022-07-14T11:14:28Z</time>
      </trkpt>
      <trkpt lat="46.76573" lon="5.66614">
        <ele>562.51</ele>
        <time>2022-07-14T11:14:42Z</time>
      </trkpt>
      <trkpt lat="46.76547" lon="5.6665">
        <ele>562.03</ele>
        <time>2022-07-14T11:14:56Z</time>
      </trkpt>
      <trkpt lat="46.76543" lon="5.66653">
        <ele>562.03</ele>
        <time>2022-07-14T11:14:57Z</time>
      </trkpt>
      <trkpt lat="46.76524" lon="5.66667">
        <ele>562.03</ele>
        <time>2022-07-14T11:15:02Z</time>
      </trkpt>
      <trkpt lat="46.7652" lon="5.6667">
        <ele>561.55</ele>
        <time>2022-07-14T11:15:03Z</time>
      </trkpt>
      <trkpt lat="46.76499" lon="5.66689">
        <ele>561.07</ele>
        <time>2022-07-14T11:15:08Z</time>
      </trkpt>
      <trkpt lat="46.76476" lon="5.66714">
        <ele>559.62</ele>
        <time>2022-07-14T11:15:13Z</time>
      </trkpt>
      <trkpt lat="46.7645" lon="5.66753">
        <ele>558.66</ele>
        <time>2022-07-14T11:15:19Z</time>
      </trkpt>
      <trkpt lat="46.76447" lon="5.66761">
        <ele>558.18</ele>
        <time>2022-07-14T11:15:20Z</time>
      </trkpt>
      <trkpt lat="46.76445" lon="5.6677">
        <ele>558.66</ele>
        <time>2022-07-14T11:15:21Z</time>
      </trkpt>
      <trkpt lat="46.76443" lon="5.66788">
        <ele>557.7</ele>
        <time>2022-07-14T11:15:23Z</time>
      </trkpt>
      <trkpt lat="46.76443" lon="5.66797">
        <ele>557.22</ele>
        <time>2022-07-14T11:15:24Z</time>
      </trkpt>
      <trkpt lat="46.76443" lon="5.66806">
        <ele>557.22</ele>
        <time>2022-07-14T11:15:25Z</time>
      </trkpt>
      <trkpt lat="46.76447" lon="5.66897">
        <ele>553.86</ele>
        <time>2022-07-14T11:15:34Z</time>
      </trkpt>
      <trkpt lat="46.76459" lon="5.67006">
        <ele>553.86</ele>
        <time>2022-07-14T11:15:47Z</time>
      </trkpt>
      <trkpt lat="46.76466" lon="5.67034">
        <ele>553.38</ele>
        <time>2022-07-14T11:15:51Z</time>
      </trkpt>
      <trkpt lat="46.76467" lon="5.67041">
        <ele>552.9</ele>
        <time>2022-07-14T11:15:52Z</time>
      </trkpt>
      <trkpt lat="46.76476" lon="5.67102">
        <ele>552.9</ele>
        <time>2022-07-14T11:16:00Z</time>
      </trkpt>
      <trkpt lat="46.7648" lon="5.67117">
        <ele>552.9</ele>
        <time>2022-07-14T11:16:02Z</time>
      </trkpt>
      <trkpt lat="46.76493" lon="5.6722">
        <ele>551.45</ele>
        <time>2022-07-14T11:16:16Z</time>
      </trkpt>
      <trkpt lat="46.76494" lon="5.67234">
        <ele>550.97</ele>
        <time>2022-07-14T11:16:18Z</time>
      </trkpt>
      <trkpt lat="46.76496" lon="5.67241">
        <ele>550.97</ele>
        <time>2022-07-14T11:16:19Z</time>
      </trkpt>
      <trkpt lat="46.76498" lon="5.67257">
        <ele>550.49</ele>
        <time>2022-07-14T11:16:21Z</time>
      </trkpt>
      <trkpt lat="46.765" lon="5.67266">
        <ele>550.49</ele>
        <time>2022-07-14T11:16:22Z</time>
      </trkpt>
      <trkpt lat="46.76529" lon="5.67404">
        <ele>549.05</ele>
        <time>2022-07-14T11:16:36Z</time>
      </trkpt>
      <trkpt lat="46.76532" lon="5.67434">
        <ele>548.09</ele>
        <time>2022-07-14T11:16:40Z</time>
      </trkpt>
      <trkpt lat="46.76535" lon="5.67454">
        <ele>549.05</ele>
        <time>2022-07-14T11:16:43Z</time>
      </trkpt>
      <trkpt lat="46.76547" lon="5.67542">
        <ele>551.45</ele>
        <time>2022-07-14T11:16:58Z</time>
      </trkpt>
      <trkpt lat="46.76563" lon="5.67613">
        <ele>550.49</ele>
        <time>2022-07-14T11:17:09Z</time>
      </trkpt>
      <trkpt lat="46.76586" lon="5.67724">
        <ele>547.13</ele>
        <time>2022-07-14T11:17:21Z</time>
      </trkpt>
      <trkpt lat="46.76597" lon="5.6784">
        <ele>544.24</ele>
        <time>2022-07-14T11:17:31Z</time>
      </trkpt>
      <trkpt lat="46.76612" lon="5.67988">
        <ele>543.76</ele>
        <time>2022-07-14T11:17:46Z</time>
      </trkpt>
      <trkpt lat="46.7662" lon="5.68087">
        <ele>544.24</ele>
        <time>2022-07-14T11:18:00Z</time>
      </trkpt>
      <trkpt lat="46.7662" lon="5.68185">
        <ele>544.24</ele>
        <time>2022-07-14T11:18:16Z</time>
      </trkpt>
      <trkpt lat="46.76621" lon="5.68216">
        <ele>543.28</ele>
        <time>2022-07-14T11:18:22Z</time>
      </trkpt>
      <trkpt lat="46.7662" lon="5.68216">
        <ele>543.76</ele>
        <time>2022-07-14T11:18:23Z</time>
      </trkpt>
      <trkpt lat="46.76617" lon="5.68212">
        <ele>543.76</ele>
        <time>2022-07-14T11:18:32Z</time>
      </trkpt>
      <trkpt lat="46.76617" lon="5.68206">
        <ele>543.28</ele>
        <time>2022-07-14T11:18:48Z</time>
      </trkpt>
      <trkpt lat="46.76615" lon="5.68205">
        <ele>542.8</ele>
        <time>2022-07-14T11:19:26Z</time>
      </trkpt>
      <trkpt lat="46.76616" lon="5.68204">
        <ele>543.28</ele>
        <time>2022-07-14T11:20:01Z</time>
      </trkpt>
      <trkpt lat="46.76617" lon="5.68205">
        <ele>543.28</ele>
        <time>2022-07-14T11:20:38Z</time>
      </trkpt>
      <trkpt lat="46.76617" lon="5.68205">
        <ele>543.28</ele>
        <time>2022-07-14T11:21:19Z</time>
      </trkpt>
      <trkpt lat="46.76619" lon="5.68207">
        <ele>542.8</ele>
        <time>2022-07-14T11:21:27Z</time>
      </trkpt>
      <trkpt lat="46.76621" lon="5.68216">
        <ele>543.76</ele>
        <time>2022-07-14T11:21:31Z</time>
      </trkpt>
      <trkpt lat="46.76622" lon="5.68219">
        <ele>542.8</ele>
        <time>2022-07-14T11:21:32Z</time>
      </trkpt>
      <trkpt lat="46.76622" lon="5.68223">
        <ele>542.8</ele>
        <time>2022-07-14T11:21:33Z</time>
      </trkpt>
      <trkpt lat="46.76635" lon="5.68303">
        <ele>540.88</ele>
        <time>2022-07-14T11:21:46Z</time>
      </trkpt>
      <trkpt lat="46.76643" lon="5.68428">
        <ele>537.51</ele>
        <time>2022-07-14T11:21:59Z</time>
      </trkpt>
      <trkpt lat="46.76641" lon="5.68516">
        <ele>538.48</ele>
        <time>2022-07-14T11:22:11Z</time>
      </trkpt>
      <trkpt lat="46.76641" lon="5.68577">
        <ele>539.44</ele>
        <time>2022-07-14T11:22:21Z</time>
      </trkpt>
      <trkpt lat="46.76639" lon="5.68668">
        <ele>540.88</ele>
        <time>2022-07-14T11:22:37Z</time>
      </trkpt>
      <trkpt lat="46.76642" lon="5.68764">
        <ele>541.84</ele>
        <time>2022-07-14T11:22:56Z</time>
      </trkpt>
      <trkpt lat="46.76642" lon="5.68867">
        <ele>542.8</ele>
        <time>2022-07-14T11:23:16Z</time>
      </trkpt>
      <trkpt lat="46.76641" lon="5.6895">
        <ele>544.24</ele>
        <time>2022-07-14T11:23:32Z</time>
      </trkpt>
      <trkpt lat="46.76649" lon="5.69027">
        <ele>546.17</ele>
        <time>2022-07-14T11:23:47Z</time>
      </trkpt>
      <trkpt lat="46.76659" lon="5.69114">
        <ele>547.13</ele>
        <time>2022-07-14T11:24:04Z</time>
      </trkpt>
      <trkpt lat="46.76668" lon="5.69198">
        <ele>548.57</ele>
        <time>2022-07-14T11:24:20Z</time>
      </trkpt>
      <trkpt lat="46.76682" lon="5.69282">
        <ele>548.09</ele>
        <time>2022-07-14T11:24:35Z</time>
      </trkpt>
      <trkpt lat="46.76699" lon="5.69354">
        <ele>546.17</ele>
        <time>2022-07-14T11:24:46Z</time>
      </trkpt>
      <trkpt lat="46.767" lon="5.69362">
        <ele>546.17</ele>
        <time>2022-07-14T11:24:47Z</time>
      </trkpt>
      <trkpt lat="46.76699" lon="5.69371">
        <ele>545.69</ele>
        <time>2022-07-14T11:24:48Z</time>
      </trkpt>
      <trkpt lat="46.76697" lon="5.6938">
        <ele>545.69</ele>
        <time>2022-07-14T11:24:49Z</time>
      </trkpt>
      <trkpt lat="46.76692" lon="5.69387">
        <ele>545.69</ele>
        <time>2022-07-14T11:24:50Z</time>
      </trkpt>
      <trkpt lat="46.76687" lon="5.69392">
        <ele>545.2</ele>
        <time>2022-07-14T11:24:51Z</time>
      </trkpt>
      <trkpt lat="46.76681" lon="5.69395">
        <ele>544.24</ele>
        <time>2022-07-14T11:24:52Z</time>
      </trkpt>
      <trkpt lat="46.76675" lon="5.69399">
        <ele>543.76</ele>
        <time>2022-07-14T11:24:53Z</time>
      </trkpt>
      <trkpt lat="46.76649" lon="5.69414">
        <ele>543.28</ele>
        <time>2022-07-14T11:24:57Z</time>
      </trkpt>
      <trkpt lat="46.76639" lon="5.69419">
        <ele>541.84</ele>
        <time>2022-07-14T11:24:59Z</time>
      </trkpt>
      <trkpt lat="46.76634" lon="5.69419">
        <ele>542.32</ele>
        <time>2022-07-14T11:25:00Z</time>
      </trkpt>
      <trkpt lat="46.7661" lon="5.69422">
        <ele>540.88</ele>
        <time>2022-07-14T11:25:10Z</time>
      </trkpt>
      <trkpt lat="46.76612" lon="5.69419">
        <ele>540.4</ele>
        <time>2022-07-14T11:25:29Z</time>
      </trkpt>
      <trkpt lat="46.7661" lon="5.6942">
        <ele>540.4</ele>
        <time>2022-07-14T11:26:13Z</time>
      </trkpt>
      <trkpt lat="46.76611" lon="5.69417">
        <ele>540.88</ele>
        <time>2022-07-14T11:26:53Z</time>
      </trkpt>
      <trkpt lat="46.7661" lon="5.69418">
        <ele>540.4</ele>
        <time>2022-07-14T11:27:41Z</time>
      </trkpt>
      <trkpt lat="46.7661" lon="5.69419">
        <ele>539.92</ele>
        <time>2022-07-14T11:28:07Z</time>
      </trkpt>
      <trkpt lat="46.76609" lon="5.69423">
        <ele>539.92</ele>
        <time>2022-07-14T11:28:13Z</time>
      </trkpt>
      <trkpt lat="46.76609" lon="5.69425">
        <ele>539.92</ele>
        <time>2022-07-14T11:28:14Z</time>
      </trkpt>
      <trkpt lat="46.76608" lon="5.69427">
        <ele>539.44</ele>
        <time>2022-07-14T11:28:15Z</time>
      </trkpt>
      <trkpt lat="46.76607" lon="5.69429">
        <ele>539.92</ele>
        <time>2022-07-14T11:28:16Z</time>
      </trkpt>
      <trkpt lat="46.76606" lon="5.69431">
        <ele>539.92</ele>
        <time>2022-07-14T11:28:17Z</time>
      </trkpt>
      <trkpt lat="46.76605" lon="5.69433">
        <ele>540.4</ele>
        <time>2022-07-14T11:28:18Z</time>
      </trkpt>
      <trkpt lat="46.76603" lon="5.69436">
        <ele>540.4</ele>
        <time>2022-07-14T11:28:19Z</time>
      </trkpt>
      <trkpt lat="46.76601" lon="5.69438">
        <ele>540.4</ele>
        <time>2022-07-14T11:28:20Z</time>
      </trkpt>
      <trkpt lat="46.76599" lon="5.6944">
        <ele>539.92</ele>
        <time>2022-07-14T11:28:21Z</time>
      </trkpt>
      <trkpt lat="46.76597" lon="5.69442">
        <ele>540.4</ele>
        <time>2022-07-14T11:28:22Z</time>
      </trkpt>
      <trkpt lat="46.76595" lon="5.69445">
        <ele>540.4</ele>
        <time>2022-07-14T11:28:23Z</time>
      </trkpt>
      <trkpt lat="46.76548" lon="5.69486">
        <ele>539.92</ele>
        <time>2022-07-14T11:28:43Z</time>
      </trkpt>
      <trkpt lat="46.76529" lon="5.695">
        <ele>538.48</ele>
        <time>2022-07-14T11:28:48Z</time>
      </trkpt>
      <trkpt lat="46.76524" lon="5.69502">
        <ele>538.48</ele>
        <time>2022-07-14T11:28:49Z</time>
      </trkpt>
      <trkpt lat="46.7648" lon="5.69509">
        <ele>537.99</ele>
        <time>2022-07-14T11:28:58Z</time>
      </trkpt>
      <trkpt lat="46.7639" lon="5.69501">
        <ele>536.55</ele>
        <time>2022-07-14T11:29:14Z</time>
      </trkpt>
      <trkpt lat="46.76341" lon="5.69498">
        <ele>537.99</ele>
        <time>2022-07-14T11:29:23Z</time>
      </trkpt>
      <trkpt lat="46.76266" lon="5.69512">
        <ele>537.99</ele>
        <time>2022-07-14T11:29:41Z</time>
      </trkpt>
      <trkpt lat="46.76242" lon="5.69524">
        <ele>537.03</ele>
        <time>2022-07-14T11:29:47Z</time>
      </trkpt>
      <trkpt lat="46.76163" lon="5.69541">
        <ele>535.59</ele>
        <time>2022-07-14T11:30:04Z</time>
      </trkpt>
      <trkpt lat="46.76076" lon="5.69543">
        <ele>535.11</ele>
        <time>2022-07-14T11:30:22Z</time>
      </trkpt>
      <trkpt lat="46.75996" lon="5.69547">
        <ele>534.63</ele>
        <time>2022-07-14T11:30:38Z</time>
      </trkpt>
      <trkpt lat="46.75958" lon="5.69554">
        <ele>532.23</ele>
        <time>2022-07-14T11:30:45Z</time>
      </trkpt>
      <trkpt lat="46.75877" lon="5.69582">
        <ele>531.75</ele>
        <time>2022-07-14T11:31:00Z</time>
      </trkpt>
      <trkpt lat="46.75792" lon="5.69617">
        <ele>531.75</ele>
        <time>2022-07-14T11:31:15Z</time>
      </trkpt>
      <trkpt lat="46.75784" lon="5.69618">
        <ele>532.23</ele>
        <time>2022-07-14T11:31:17Z</time>
      </trkpt>
      <trkpt lat="46.75706" lon="5.69613">
        <ele>532.71</ele>
        <time>2022-07-14T11:31:37Z</time>
      </trkpt>
      <trkpt lat="46.75653" lon="5.69617">
        <ele>536.07</ele>
        <time>2022-07-14T11:31:52Z</time>
      </trkpt>
      <trkpt lat="46.75595" lon="5.69628">
        <ele>536.07</ele>
        <time>2022-07-14T11:32:08Z</time>
      </trkpt>
      <trkpt lat="46.7559" lon="5.69629">
        <ele>534.63</ele>
        <time>2022-07-14T11:32:09Z</time>
      </trkpt>
      <trkpt lat="46.75586" lon="5.69629">
        <ele>534.63</ele>
        <time>2022-07-14T11:32:10Z</time>
      </trkpt>
      <trkpt lat="46.75525" lon="5.69622">
        <ele>531.75</ele>
        <time>2022-07-14T11:32:23Z</time>
      </trkpt>
      <trkpt lat="46.75451" lon="5.69595">
        <ele>530.79</ele>
        <time>2022-07-14T11:32:38Z</time>
      </trkpt>
      <trkpt lat="46.7539" lon="5.6955">
        <ele>529.82</ele>
        <time>2022-07-14T11:32:56Z</time>
      </trkpt>
      <trkpt lat="46.75327" lon="5.69504">
        <ele>530.3</ele>
        <time>2022-07-14T11:33:12Z</time>
      </trkpt>
      <trkpt lat="46.75288" lon="5.69492">
        <ele>531.75</ele>
        <time>2022-07-14T11:33:21Z</time>
      </trkpt>
      <trkpt lat="46.75215" lon="5.69487">
        <ele>530.79</ele>
        <time>2022-07-14T11:33:39Z</time>
      </trkpt>
      <trkpt lat="46.75153" lon="5.6948">
        <ele>531.27</ele>
        <time>2022-07-14T11:33:56Z</time>
      </trkpt>
      <trkpt lat="46.7511" lon="5.69481">
        <ele>532.71</ele>
        <time>2022-07-14T11:34:10Z</time>
      </trkpt>
      <trkpt lat="46.75067" lon="5.6948">
        <ele>534.63</ele>
        <time>2022-07-14T11:34:24Z</time>
      </trkpt>
      <trkpt lat="46.75027" lon="5.69479">
        <ele>534.63</ele>
        <time>2022-07-14T11:34:37Z</time>
      </trkpt>
      <trkpt lat="46.74989" lon="5.69474">
        <ele>534.15</ele>
        <time>2022-07-14T11:34:46Z</time>
      </trkpt>
      <trkpt lat="46.74985" lon="5.69475">
        <ele>533.19</ele>
        <time>2022-07-14T11:34:47Z</time>
      </trkpt>
      <trkpt lat="46.74981" lon="5.69476">
        <ele>533.67</ele>
        <time>2022-07-14T11:34:48Z</time>
      </trkpt>
      <trkpt lat="46.74977" lon="5.69478">
        <ele>533.67</ele>
        <time>2022-07-14T11:34:49Z</time>
      </trkpt>
      <trkpt lat="46.74973" lon="5.69481">
        <ele>533.19</ele>
        <time>2022-07-14T11:34:50Z</time>
      </trkpt>
      <trkpt lat="46.7497" lon="5.69484">
        <ele>533.67</ele>
        <time>2022-07-14T11:34:51Z</time>
      </trkpt>
      <trkpt lat="46.74966" lon="5.69488">
        <ele>534.15</ele>
        <time>2022-07-14T11:34:52Z</time>
      </trkpt>
      <trkpt lat="46.74963" lon="5.69493">
        <ele>533.67</ele>
        <time>2022-07-14T11:34:53Z</time>
      </trkpt>
      <trkpt lat="46.7496" lon="5.69498">
        <ele>533.19</ele>
        <time>2022-07-14T11:34:54Z</time>
      </trkpt>
      <trkpt lat="46.74922" lon="5.69554">
        <ele>533.19</ele>
        <time>2022-07-14T11:35:06Z</time>
      </trkpt>
      <trkpt lat="46.74918" lon="5.69557">
        <ele>533.67</ele>
        <time>2022-07-14T11:35:07Z</time>
      </trkpt>
      <trkpt lat="46.74913" lon="5.6956">
        <ele>533.67</ele>
        <time>2022-07-14T11:35:08Z</time>
      </trkpt>
      <trkpt lat="46.74909" lon="5.69563">
        <ele>533.19</ele>
        <time>2022-07-14T11:35:09Z</time>
      </trkpt>
      <trkpt lat="46.74904" lon="5.69565">
        <ele>533.19</ele>
        <time>2022-07-14T11:35:10Z</time>
      </trkpt>
      <trkpt lat="46.74899" lon="5.69566">
        <ele>533.67</ele>
        <time>2022-07-14T11:35:11Z</time>
      </trkpt>
      <trkpt lat="46.74894" lon="5.69566">
        <ele>533.67</ele>
        <time>2022-07-14T11:35:12Z</time>
      </trkpt>
      <trkpt lat="46.74889" lon="5.69566">
        <ele>533.19</ele>
        <time>2022-07-14T11:35:13Z</time>
      </trkpt>
      <trkpt lat="46.74818" lon="5.69533">
        <ele>533.67</ele>
        <time>2022-07-14T11:35:28Z</time>
      </trkpt>
      <trkpt lat="46.74814" lon="5.69532">
        <ele>533.19</ele>
        <time>2022-07-14T11:35:29Z</time>
      </trkpt>
      <trkpt lat="46.74751" lon="5.69529">
        <ele>534.15</ele>
        <time>2022-07-14T11:35:43Z</time>
      </trkpt>
      <trkpt lat="46.747" lon="5.6957">
        <ele>534.15</ele>
        <time>2022-07-14T11:35:57Z</time>
      </trkpt>
      <trkpt lat="46.74679" lon="5.69598">
        <ele>532.71</ele>
        <time>2022-07-14T11:36:03Z</time>
      </trkpt>
      <trkpt lat="46.74635" lon="5.69641">
        <ele>532.71</ele>
        <time>2022-07-14T11:36:13Z</time>
      </trkpt>
      <trkpt lat="46.7463" lon="5.69644">
        <ele>531.75</ele>
        <time>2022-07-14T11:36:14Z</time>
      </trkpt>
      <trkpt lat="46.74624" lon="5.69647">
        <ele>532.71</ele>
        <time>2022-07-14T11:36:15Z</time>
      </trkpt>
      <trkpt lat="46.74618" lon="5.69648">
        <ele>532.23</ele>
        <time>2022-07-14T11:36:16Z</time>
      </trkpt>
      <trkpt lat="46.74613" lon="5.69648">
        <ele>533.19</ele>
        <time>2022-07-14T11:36:17Z</time>
      </trkpt>
      <trkpt lat="46.74607" lon="5.69649">
        <ele>534.63</ele>
        <time>2022-07-14T11:36:18Z</time>
      </trkpt>
      <trkpt lat="46.74595" lon="5.69648">
        <ele>533.67</ele>
        <time>2022-07-14T11:36:20Z</time>
      </trkpt>
      <trkpt lat="46.74589" lon="5.69646">
        <ele>534.15</ele>
        <time>2022-07-14T11:36:21Z</time>
      </trkpt>
      <trkpt lat="46.74496" lon="5.69621">
        <ele>534.15</ele>
        <time>2022-07-14T11:36:38Z</time>
      </trkpt>
      <trkpt lat="46.74469" lon="5.69616">
        <ele>535.11</ele>
        <time>2022-07-14T11:36:44Z</time>
      </trkpt>
      <trkpt lat="46.74375" lon="5.69614">
        <ele>534.63</ele>
        <time>2022-07-14T11:37:04Z</time>
      </trkpt>
      <trkpt lat="46.74292" lon="5.69617">
        <ele>535.11</ele>
        <time>2022-07-14T11:37:22Z</time>
      </trkpt>
      <trkpt lat="46.74229" lon="5.69614">
        <ele>535.59</ele>
        <time>2022-07-14T11:37:37Z</time>
      </trkpt>
      <trkpt lat="46.74169" lon="5.69581">
        <ele>536.55</ele>
        <time>2022-07-14T11:37:53Z</time>
      </trkpt>
      <trkpt lat="46.7413" lon="5.69559">
        <ele>535.59</ele>
        <time>2022-07-14T11:38:02Z</time>
      </trkpt>
      <trkpt lat="46.7404" lon="5.69551">
        <ele>535.59</ele>
        <time>2022-07-14T11:38:23Z</time>
      </trkpt>
      <trkpt lat="46.73976" lon="5.69563">
        <ele>536.55</ele>
        <time>2022-07-14T11:38:40Z</time>
      </trkpt>
      <trkpt lat="46.73937" lon="5.69588">
        <ele>536.55</ele>
        <time>2022-07-14T11:38:51Z</time>
      </trkpt>
      <trkpt lat="46.73882" lon="5.69656">
        <ele>537.03</ele>
        <time>2022-07-14T11:39:09Z</time>
      </trkpt>
      <trkpt lat="46.73878" lon="5.6966">
        <ele>537.03</ele>
        <time>2022-07-14T11:39:10Z</time>
      </trkpt>
      <trkpt lat="46.73874" lon="5.69663">
        <ele>537.03</ele>
        <time>2022-07-14T11:39:11Z</time>
      </trkpt>
      <trkpt lat="46.7387" lon="5.69666">
        <ele>537.51</ele>
        <time>2022-07-14T11:39:12Z</time>
      </trkpt>
      <trkpt lat="46.73866" lon="5.69668">
        <ele>536.07</ele>
        <time>2022-07-14T11:39:13Z</time>
      </trkpt>
      <trkpt lat="46.73862" lon="5.6967">
        <ele>537.51</ele>
        <time>2022-07-14T11:39:14Z</time>
      </trkpt>
      <trkpt lat="46.73857" lon="5.69672">
        <ele>537.03</ele>
        <time>2022-07-14T11:39:15Z</time>
      </trkpt>
      <trkpt lat="46.73853" lon="5.69674">
        <ele>537.03</ele>
        <time>2022-07-14T11:39:16Z</time>
      </trkpt>
      <trkpt lat="46.73849" lon="5.69675">
        <ele>537.03</ele>
        <time>2022-07-14T11:39:17Z</time>
      </trkpt>
      <trkpt lat="46.73794" lon="5.69691">
        <ele>537.51</ele>
        <time>2022-07-14T11:39:30Z</time>
      </trkpt>
      <trkpt lat="46.7379" lon="5.69693">
        <ele>537.99</ele>
        <time>2022-07-14T11:39:31Z</time>
      </trkpt>
      <trkpt lat="46.73787" lon="5.69696">
        <ele>537.51</ele>
        <time>2022-07-14T11:39:32Z</time>
      </trkpt>
      <trkpt lat="46.73783" lon="5.69698">
        <ele>537.99</ele>
        <time>2022-07-14T11:39:33Z</time>
      </trkpt>
      <trkpt lat="46.7378" lon="5.69701">
        <ele>537.99</ele>
        <time>2022-07-14T11:39:34Z</time>
      </trkpt>
      <trkpt lat="46.73777" lon="5.69704">
        <ele>538.48</ele>
        <time>2022-07-14T11:39:35Z</time>
      </trkpt>
      <trkpt lat="46.73774" lon="5.69707">
        <ele>537.99</ele>
        <time>2022-07-14T11:39:36Z</time>
      </trkpt>
      <trkpt lat="46.73729" lon="5.69765">
        <ele>538.48</ele>
        <time>2022-07-14T11:39:52Z</time>
      </trkpt>
      <trkpt lat="46.73697" lon="5.69813">
        <ele>538.96</ele>
        <time>2022-07-14T11:40:05Z</time>
      </trkpt>
      <trkpt lat="46.73671" lon="5.69852">
        <ele>538.96</ele>
        <time>2022-07-14T11:40:15Z</time>
      </trkpt>
      <trkpt lat="46.73614" lon="5.69923">
        <ele>537.03</ele>
        <time>2022-07-14T11:40:29Z</time>
      </trkpt>
      <trkpt lat="46.7361" lon="5.69929">
        <ele>536.07</ele>
        <time>2022-07-14T11:40:30Z</time>
      </trkpt>
      <trkpt lat="46.73605" lon="5.69935">
        <ele>536.07</ele>
        <time>2022-07-14T11:40:31Z</time>
      </trkpt>
      <trkpt lat="46.736" lon="5.6994">
        <ele>535.59</ele>
        <time>2022-07-14T11:40:32Z</time>
      </trkpt>
      <trkpt lat="46.73594" lon="5.69945">
        <ele>535.59</ele>
        <time>2022-07-14T11:40:33Z</time>
      </trkpt>
      <trkpt lat="46.73589" lon="5.69948">
        <ele>535.11</ele>
        <time>2022-07-14T11:40:34Z</time>
      </trkpt>
      <trkpt lat="46.73583" lon="5.69951">
        <ele>535.11</ele>
        <time>2022-07-14T11:40:35Z</time>
      </trkpt>
      <trkpt lat="46.73577" lon="5.69952">
        <ele>534.63</ele>
        <time>2022-07-14T11:40:36Z</time>
      </trkpt>
      <trkpt lat="46.73564" lon="5.69955">
        <ele>535.59</ele>
        <time>2022-07-14T11:40:38Z</time>
      </trkpt>
      <trkpt lat="46.73558" lon="5.69954">
        <ele>535.11</ele>
        <time>2022-07-14T11:40:39Z</time>
      </trkpt>
      <trkpt lat="46.73552" lon="5.69952">
        <ele>535.59</ele>
        <time>2022-07-14T11:40:40Z</time>
      </trkpt>
      <trkpt lat="46.73546" lon="5.69948">
        <ele>535.11</ele>
        <time>2022-07-14T11:40:41Z</time>
      </trkpt>
      <trkpt lat="46.73542" lon="5.69943">
        <ele>535.11</ele>
        <time>2022-07-14T11:40:42Z</time>
      </trkpt>
      <trkpt lat="46.73537" lon="5.69938">
        <ele>535.11</ele>
        <time>2022-07-14T11:40:43Z</time>
      </trkpt>
      <trkpt lat="46.73534" lon="5.69933">
        <ele>535.11</ele>
        <time>2022-07-14T11:40:44Z</time>
      </trkpt>
      <trkpt lat="46.73515" lon="5.69901">
        <ele>535.11</ele>
        <time>2022-07-14T11:40:50Z</time>
      </trkpt>
      <trkpt lat="46.73513" lon="5.69896">
        <ele>534.63</ele>
        <time>2022-07-14T11:40:51Z</time>
      </trkpt>
      <trkpt lat="46.73511" lon="5.6989">
        <ele>534.63</ele>
        <time>2022-07-14T11:40:52Z</time>
      </trkpt>
      <trkpt lat="46.7351" lon="5.69883">
        <ele>534.15</ele>
        <time>2022-07-14T11:40:53Z</time>
      </trkpt>
      <trkpt lat="46.7351" lon="5.69876">
        <ele>533.67</ele>
        <time>2022-07-14T11:40:54Z</time>
      </trkpt>
      <trkpt lat="46.7351" lon="5.69869">
        <ele>533.67</ele>
        <time>2022-07-14T11:40:55Z</time>
      </trkpt>
      <trkpt lat="46.73511" lon="5.69855">
        <ele>533.67</ele>
        <time>2022-07-14T11:40:57Z</time>
      </trkpt>
      <trkpt lat="46.73512" lon="5.69827">
        <ele>532.71</ele>
        <time>2022-07-14T11:41:01Z</time>
      </trkpt>
      <trkpt lat="46.73512" lon="5.69803">
        <ele>532.23</ele>
        <time>2022-07-14T11:41:08Z</time>
      </trkpt>
      <trkpt lat="46.7351" lon="5.698">
        <ele>531.75</ele>
        <time>2022-07-14T11:41:10Z</time>
      </trkpt>
      <trkpt lat="46.73509" lon="5.69799">
        <ele>532.23</ele>
        <time>2022-07-14T11:41:11Z</time>
      </trkpt>
      <trkpt lat="46.73481" lon="5.69772">
        <ele>532.23</ele>
        <time>2022-07-14T11:41:24Z</time>
      </trkpt>
      <trkpt lat="46.73426" lon="5.69735">
        <ele>531.75</ele>
        <time>2022-07-14T11:41:39Z</time>
      </trkpt>
      <trkpt lat="46.73387" lon="5.69701">
        <ele>534.15</ele>
        <time>2022-07-14T11:41:53Z</time>
      </trkpt>
      <trkpt lat="46.73324" lon="5.69654">
        <ele>532.71</ele>
        <time>2022-07-14T11:42:09Z</time>
      </trkpt>
      <trkpt lat="46.73302" lon="5.69632">
        <ele>533.19</ele>
        <time>2022-07-14T11:42:15Z</time>
      </trkpt>
      <trkpt lat="46.733" lon="5.69627">
        <ele>532.71</ele>
        <time>2022-07-14T11:42:16Z</time>
      </trkpt>
      <trkpt lat="46.73299" lon="5.69622">
        <ele>533.19</ele>
        <time>2022-07-14T11:42:17Z</time>
      </trkpt>
      <trkpt lat="46.73298" lon="5.69616">
        <ele>533.19</ele>
        <time>2022-07-14T11:42:18Z</time>
      </trkpt>
      <trkpt lat="46.73297" lon="5.6961">
        <ele>533.19</ele>
        <time>2022-07-14T11:42:19Z</time>
      </trkpt>
      <trkpt lat="46.73297" lon="5.69604">
        <ele>533.19</ele>
        <time>2022-07-14T11:42:20Z</time>
      </trkpt>
      <trkpt lat="46.73297" lon="5.69598">
        <ele>533.19</ele>
        <time>2022-07-14T11:42:21Z</time>
      </trkpt>
      <trkpt lat="46.73297" lon="5.69592">
        <ele>533.67</ele>
        <time>2022-07-14T11:42:22Z</time>
      </trkpt>
      <trkpt lat="46.73303" lon="5.69499">
        <ele>533.67</ele>
        <time>2022-07-14T11:42:37Z</time>
      </trkpt>
      <trkpt lat="46.73308" lon="5.69387">
        <ele>534.63</ele>
        <time>2022-07-14T11:42:56Z</time>
      </trkpt>
      <trkpt lat="46.73312" lon="5.69287">
        <ele>536.55</ele>
        <time>2022-07-14T11:43:15Z</time>
      </trkpt>
      <trkpt lat="46.73315" lon="5.69208">
        <ele>537.99</ele>
        <time>2022-07-14T11:43:33Z</time>
      </trkpt>
      <trkpt lat="46.73306" lon="5.69135">
        <ele>538.96</ele>
        <time>2022-07-14T11:43:48Z</time>
      </trkpt>
      <trkpt lat="46.73285" lon="5.69049">
        <ele>536.55</ele>
        <time>2022-07-14T11:44:02Z</time>
      </trkpt>
      <trkpt lat="46.73255" lon="5.68924">
        <ele>533.67</ele>
        <time>2022-07-14T11:44:16Z</time>
      </trkpt>
      <trkpt lat="46.73254" lon="5.68914">
        <ele>533.67</ele>
        <time>2022-07-14T11:44:17Z</time>
      </trkpt>
      <trkpt lat="46.73254" lon="5.68904">
        <ele>533.19</ele>
        <time>2022-07-14T11:44:18Z</time>
      </trkpt>
      <trkpt lat="46.73265" lon="5.68813">
        <ele>529.82</ele>
        <time>2022-07-14T11:44:27Z</time>
      </trkpt>
      <trkpt lat="46.73267" lon="5.6879">
        <ele>528.86</ele>
        <time>2022-07-14T11:44:29Z</time>
      </trkpt>
      <trkpt lat="46.7327" lon="5.68733">
        <ele>528.86</ele>
        <time>2022-07-14T11:44:34Z</time>
      </trkpt>
      <trkpt lat="46.73269" lon="5.68723">
        <ele>528.86</ele>
        <time>2022-07-14T11:44:35Z</time>
      </trkpt>
      <trkpt lat="46.73267" lon="5.68713">
        <ele>528.86</ele>
        <time>2022-07-14T11:44:36Z</time>
      </trkpt>
      <trkpt lat="46.73266" lon="5.68705">
        <ele>529.34</ele>
        <time>2022-07-14T11:44:37Z</time>
      </trkpt>
      <trkpt lat="46.73264" lon="5.68698">
        <ele>528.86</ele>
        <time>2022-07-14T11:44:38Z</time>
      </trkpt>
      <trkpt lat="46.73261" lon="5.68691">
        <ele>528.86</ele>
        <time>2022-07-14T11:44:39Z</time>
      </trkpt>
      <trkpt lat="46.73258" lon="5.68684">
        <ele>528.86</ele>
        <time>2022-07-14T11:44:40Z</time>
      </trkpt>
      <trkpt lat="46.732" lon="5.68592">
        <ele>527.9</ele>
        <time>2022-07-14T11:44:55Z</time>
      </trkpt>
      <trkpt lat="46.73153" lon="5.68536">
        <ele>529.34</ele>
        <time>2022-07-14T11:45:09Z</time>
      </trkpt>
      <trkpt lat="46.73113" lon="5.68485">
        <ele>531.27</ele>
        <time>2022-07-14T11:45:28Z</time>
      </trkpt>
      <trkpt lat="46.73078" lon="5.68415">
        <ele>531.27</ele>
        <time>2022-07-14T11:45:45Z</time>
      </trkpt>
      <trkpt lat="46.7303" lon="5.68314">
        <ele>529.34</ele>
        <time>2022-07-14T11:46:03Z</time>
      </trkpt>
      <trkpt lat="46.72987" lon="5.68252">
        <ele>528.86</ele>
        <time>2022-07-14T11:46:17Z</time>
      </trkpt>
      <trkpt lat="46.7291" lon="5.6822">
        <ele>526.46</ele>
        <time>2022-07-14T11:46:31Z</time>
      </trkpt>
      <trkpt lat="46.72839" lon="5.68153">
        <ele>524.54</ele>
        <time>2022-07-14T11:46:43Z</time>
      </trkpt>
      <trkpt lat="46.72772" lon="5.68108">
        <ele>521.17</ele>
        <time>2022-07-14T11:46:53Z</time>
      </trkpt>
      <trkpt lat="46.72727" lon="5.68092">
        <ele>523.09</ele>
        <time>2022-07-14T11:47:01Z</time>
      </trkpt>
      <trkpt lat="46.72723" lon="5.68089">
        <ele>523.09</ele>
        <time>2022-07-14T11:47:02Z</time>
      </trkpt>
      <trkpt lat="46.72718" lon="5.68086">
        <ele>523.58</ele>
        <time>2022-07-14T11:47:03Z</time>
      </trkpt>
      <trkpt lat="46.72714" lon="5.68081">
        <ele>522.61</ele>
        <time>2022-07-14T11:47:04Z</time>
      </trkpt>
      <trkpt lat="46.7271" lon="5.68077">
        <ele>523.09</ele>
        <time>2022-07-14T11:47:05Z</time>
      </trkpt>
      <trkpt lat="46.72673" lon="5.68019">
        <ele>519.73</ele>
        <time>2022-07-14T11:47:14Z</time>
      </trkpt>
      <trkpt lat="46.72633" lon="5.67892">
        <ele>518.29</ele>
        <time>2022-07-14T11:47:27Z</time>
      </trkpt>
      <trkpt lat="46.72621" lon="5.67807">
        <ele>520.21</ele>
        <time>2022-07-14T11:47:38Z</time>
      </trkpt>
      <trkpt lat="46.72598" lon="5.6773">
        <ele>521.65</ele>
        <time>2022-07-14T11:47:53Z</time>
      </trkpt>
      <trkpt lat="46.72561" lon="5.67637">
        <ele>521.17</ele>
        <time>2022-07-14T11:48:08Z</time>
      </trkpt>
      <trkpt lat="46.72555" lon="5.67624">
        <ele>521.17</ele>
        <time>2022-07-14T11:48:10Z</time>
      </trkpt>
      <trkpt lat="46.72527" lon="5.67556">
        <ele>523.09</ele>
        <time>2022-07-14T11:48:24Z</time>
      </trkpt>
      <trkpt lat="46.72494" lon="5.67486">
        <ele>524.54</ele>
        <time>2022-07-14T11:48:39Z</time>
      </trkpt>
      <trkpt lat="46.72441" lon="5.67428">
        <ele>525.02</ele>
        <time>2022-07-14T11:48:56Z</time>
      </trkpt>
      <trkpt lat="46.72433" lon="5.6742">
        <ele>524.54</ele>
        <time>2022-07-14T11:48:58Z</time>
      </trkpt>
      <trkpt lat="46.72419" lon="5.6741">
        <ele>524.06</ele>
        <time>2022-07-14T11:49:01Z</time>
      </trkpt>
      <trkpt lat="46.72356" lon="5.67355">
        <ele>524.54</ele>
        <time>2022-07-14T11:49:18Z</time>
      </trkpt>
      <trkpt lat="46.7229" lon="5.67284">
        <ele>522.61</ele>
        <time>2022-07-14T11:49:35Z</time>
      </trkpt>
      <trkpt lat="46.72265" lon="5.67222">
        <ele>522.13</ele>
        <time>2022-07-14T11:49:46Z</time>
      </trkpt>
      <trkpt lat="46.72264" lon="5.67215">
        <ele>521.17</ele>
        <time>2022-07-14T11:49:47Z</time>
      </trkpt>
      <trkpt lat="46.72265" lon="5.6718">
        <ele>519.25</ele>
        <time>2022-07-14T11:49:51Z</time>
      </trkpt>
      <trkpt lat="46.72264" lon="5.67168">
        <ele>518.77</ele>
        <time>2022-07-14T11:49:52Z</time>
      </trkpt>
      <trkpt lat="46.7226" lon="5.67117">
        <ele>516.85</ele>
        <time>2022-07-14T11:49:56Z</time>
      </trkpt>
      <trkpt lat="46.72261" lon="5.67105">
        <ele>516.37</ele>
        <time>2022-07-14T11:49:57Z</time>
      </trkpt>
      <trkpt lat="46.72262" lon="5.67094">
        <ele>516.85</ele>
        <time>2022-07-14T11:49:58Z</time>
      </trkpt>
      <trkpt lat="46.72263" lon="5.67083">
        <ele>516.85</ele>
        <time>2022-07-14T11:49:59Z</time>
      </trkpt>
      <trkpt lat="46.72286" lon="5.6701">
        <ele>517.81</ele>
        <time>2022-07-14T11:50:09Z</time>
      </trkpt>
      <trkpt lat="46.72303" lon="5.6696">
        <ele>517.33</ele>
        <time>2022-07-14T11:50:20Z</time>
      </trkpt>
      <trkpt lat="46.72301" lon="5.66945">
        <ele>516.85</ele>
        <time>2022-07-14T11:50:22Z</time>
      </trkpt>
      <trkpt lat="46.723" lon="5.66936">
        <ele>516.85</ele>
        <time>2022-07-14T11:50:23Z</time>
      </trkpt>
      <trkpt lat="46.72298" lon="5.66918">
        <ele>515.88</ele>
        <time>2022-07-14T11:50:25Z</time>
      </trkpt>
      <trkpt lat="46.72292" lon="5.66779">
        <ele>513.96</ele>
        <time>2022-07-14T11:50:38Z</time>
      </trkpt>
      <trkpt lat="46.72293" lon="5.6669">
        <ele>514.44</ele>
        <time>2022-07-14T11:50:51Z</time>
      </trkpt>
      <trkpt lat="46.72288" lon="5.66601">
        <ele>511.08</ele>
        <time>2022-07-14T11:51:00Z</time>
      </trkpt>
      <trkpt lat="46.72265" lon="5.66491">
        <ele>511.08</ele>
        <time>2022-07-14T11:51:11Z</time>
      </trkpt>
      <trkpt lat="46.72263" lon="5.66484">
        <ele>511.08</ele>
        <time>2022-07-14T11:51:12Z</time>
      </trkpt>
      <trkpt lat="46.72261" lon="5.66479">
        <ele>511.56</ele>
        <time>2022-07-14T11:51:13Z</time>
      </trkpt>
      <trkpt lat="46.72252" lon="5.66461">
        <ele>512.04</ele>
        <time>2022-07-14T11:51:16Z</time>
      </trkpt>
      <trkpt lat="46.72224" lon="5.66399">
        <ele>513.96</ele>
        <time>2022-07-14T11:51:29Z</time>
      </trkpt>
      <trkpt lat="46.72214" lon="5.66304">
        <ele>513</ele>
        <time>2022-07-14T11:51:42Z</time>
      </trkpt>
      <trkpt lat="46.72212" lon="5.66296">
        <ele>512.52</ele>
        <time>2022-07-14T11:51:43Z</time>
      </trkpt>
      <trkpt lat="46.7221" lon="5.66288">
        <ele>512.04</ele>
        <time>2022-07-14T11:51:44Z</time>
      </trkpt>
      <trkpt lat="46.72207" lon="5.66281">
        <ele>512.04</ele>
        <time>2022-07-14T11:51:45Z</time>
      </trkpt>
      <trkpt lat="46.72203" lon="5.66274">
        <ele>512.04</ele>
        <time>2022-07-14T11:51:46Z</time>
      </trkpt>
      <trkpt lat="46.72199" lon="5.66267">
        <ele>512.04</ele>
        <time>2022-07-14T11:51:47Z</time>
      </trkpt>
      <trkpt lat="46.72157" lon="5.66178">
        <ele>513</ele>
        <time>2022-07-14T11:52:00Z</time>
      </trkpt>
      <trkpt lat="46.72133" lon="5.661">
        <ele>513.96</ele>
        <time>2022-07-14T11:52:15Z</time>
      </trkpt>
      <trkpt lat="46.72131" lon="5.66095">
        <ele>513.96</ele>
        <time>2022-07-14T11:52:16Z</time>
      </trkpt>
      <trkpt lat="46.721" lon="5.66">
        <ele>514.44</ele>
        <time>2022-07-14T11:52:33Z</time>
      </trkpt>
      <trkpt lat="46.72064" lon="5.65936">
        <ele>516.37</ele>
        <time>2022-07-14T11:52:50Z</time>
      </trkpt>
      <trkpt lat="46.7205" lon="5.65915">
        <ele>515.88</ele>
        <time>2022-07-14T11:52:55Z</time>
      </trkpt>
      <trkpt lat="46.72048" lon="5.65911">
        <ele>515.4</ele>
        <time>2022-07-14T11:52:56Z</time>
      </trkpt>
      <trkpt lat="46.72045" lon="5.65905">
        <ele>515.4</ele>
        <time>2022-07-14T11:52:57Z</time>
      </trkpt>
      <trkpt lat="46.72029" lon="5.65862">
        <ele>513.96</ele>
        <time>2022-07-14T11:53:04Z</time>
      </trkpt>
      <trkpt lat="46.72028" lon="5.65854">
        <ele>513.96</ele>
        <time>2022-07-14T11:53:05Z</time>
      </trkpt>
      <trkpt lat="46.72025" lon="5.65741">
        <ele>512.04</ele>
        <time>2022-07-14T11:53:19Z</time>
      </trkpt>
      <trkpt lat="46.72026" lon="5.65652">
        <ele>508.67</ele>
        <time>2022-07-14T11:53:29Z</time>
      </trkpt>
      <trkpt lat="46.72024" lon="5.65614">
        <ele>509.16</ele>
        <time>2022-07-14T11:53:33Z</time>
      </trkpt>
      <trkpt lat="46.72023" lon="5.65605">
        <ele>508.67</ele>
        <time>2022-07-14T11:53:34Z</time>
      </trkpt>
      <trkpt lat="46.7202" lon="5.65597">
        <ele>508.67</ele>
        <time>2022-07-14T11:53:35Z</time>
      </trkpt>
      <trkpt lat="46.72018" lon="5.65589">
        <ele>508.19</ele>
        <time>2022-07-14T11:53:36Z</time>
      </trkpt>
      <trkpt lat="46.72015" lon="5.65581">
        <ele>508.19</ele>
        <time>2022-07-14T11:53:37Z</time>
      </trkpt>
      <trkpt lat="46.72012" lon="5.65575">
        <ele>508.67</ele>
        <time>2022-07-14T11:53:38Z</time>
      </trkpt>
      <trkpt lat="46.72009" lon="5.65568">
        <ele>508.19</ele>
        <time>2022-07-14T11:53:39Z</time>
      </trkpt>
      <trkpt lat="46.72005" lon="5.65562">
        <ele>508.19</ele>
        <time>2022-07-14T11:53:40Z</time>
      </trkpt>
      <trkpt lat="46.71973" lon="5.65506">
        <ele>507.23</ele>
        <time>2022-07-14T11:53:50Z</time>
      </trkpt>
      <trkpt lat="46.7197" lon="5.65501">
        <ele>507.23</ele>
        <time>2022-07-14T11:53:51Z</time>
      </trkpt>
      <trkpt lat="46.71948" lon="5.65467">
        <ele>506.75</ele>
        <time>2022-07-14T11:53:58Z</time>
      </trkpt>
      <trkpt lat="46.71892" lon="5.65387">
        <ele>506.75</ele>
        <time>2022-07-14T11:54:15Z</time>
      </trkpt>
      <trkpt lat="46.71843" lon="5.6533">
        <ele>507.71</ele>
        <time>2022-07-14T11:54:32Z</time>
      </trkpt>
      <trkpt lat="46.71813" lon="5.65317">
        <ele>507.23</ele>
        <time>2022-07-14T11:54:40Z</time>
      </trkpt>
      <trkpt lat="46.71798" lon="5.65307">
        <ele>507.23</ele>
        <time>2022-07-14T11:54:44Z</time>
      </trkpt>
      <trkpt lat="46.71794" lon="5.65304">
        <ele>507.23</ele>
        <time>2022-07-14T11:54:45Z</time>
      </trkpt>
      <trkpt lat="46.7179" lon="5.653">
        <ele>506.75</ele>
        <time>2022-07-14T11:54:46Z</time>
      </trkpt>
      <trkpt lat="46.71787" lon="5.65295">
        <ele>506.75</ele>
        <time>2022-07-14T11:54:47Z</time>
      </trkpt>
      <trkpt lat="46.71784" lon="5.65289">
        <ele>507.23</ele>
        <time>2022-07-14T11:54:48Z</time>
      </trkpt>
      <trkpt lat="46.71782" lon="5.65284">
        <ele>506.75</ele>
        <time>2022-07-14T11:54:49Z</time>
      </trkpt>
      <trkpt lat="46.7178" lon="5.65277">
        <ele>507.23</ele>
        <time>2022-07-14T11:54:50Z</time>
      </trkpt>
      <trkpt lat="46.71779" lon="5.65271">
        <ele>506.27</ele>
        <time>2022-07-14T11:54:51Z</time>
      </trkpt>
      <trkpt lat="46.71778" lon="5.65265">
        <ele>506.27</ele>
        <time>2022-07-14T11:54:52Z</time>
      </trkpt>
      <trkpt lat="46.71775" lon="5.6524">
        <ele>506.27</ele>
        <time>2022-07-14T11:54:56Z</time>
      </trkpt>
      <trkpt lat="46.71779" lon="5.65165">
        <ele>504.83</ele>
        <time>2022-07-14T11:55:06Z</time>
      </trkpt>
      <trkpt lat="46.7177" lon="5.65091">
        <ele>503.87</ele>
        <time>2022-07-14T11:55:16Z</time>
      </trkpt>
      <trkpt lat="46.71767" lon="5.65085">
        <ele>503.87</ele>
        <time>2022-07-14T11:55:17Z</time>
      </trkpt>
      <trkpt lat="46.71765" lon="5.6508">
        <ele>503.87</ele>
        <time>2022-07-14T11:55:18Z</time>
      </trkpt>
      <trkpt lat="46.71761" lon="5.65076">
        <ele>503.87</ele>
        <time>2022-07-14T11:55:19Z</time>
      </trkpt>
      <trkpt lat="46.71758" lon="5.65071">
        <ele>503.39</ele>
        <time>2022-07-14T11:55:20Z</time>
      </trkpt>
      <trkpt lat="46.71717" lon="5.64995">
        <ele>503.87</ele>
        <time>2022-07-14T11:55:35Z</time>
      </trkpt>
      <trkpt lat="46.71705" lon="5.64925">
        <ele>504.35</ele>
        <time>2022-07-14T11:55:49Z</time>
      </trkpt>
      <trkpt lat="46.71708" lon="5.64891">
        <ele>503.39</ele>
        <time>2022-07-14T11:55:55Z</time>
      </trkpt>
      <trkpt lat="46.7171" lon="5.64885">
        <ele>503.39</ele>
        <time>2022-07-14T11:55:56Z</time>
      </trkpt>
      <trkpt lat="46.71719" lon="5.64844">
        <ele>502.43</ele>
        <time>2022-07-14T11:56:02Z</time>
      </trkpt>
      <trkpt lat="46.71719" lon="5.64837">
        <ele>502.91</ele>
        <time>2022-07-14T11:56:03Z</time>
      </trkpt>
      <trkpt lat="46.71718" lon="5.6483">
        <ele>502.43</ele>
        <time>2022-07-14T11:56:04Z</time>
      </trkpt>
      <trkpt lat="46.71717" lon="5.64823">
        <ele>502.91</ele>
        <time>2022-07-14T11:56:05Z</time>
      </trkpt>
      <trkpt lat="46.71715" lon="5.64817">
        <ele>503.39</ele>
        <time>2022-07-14T11:56:06Z</time>
      </trkpt>
      <trkpt lat="46.71712" lon="5.64811">
        <ele>503.39</ele>
        <time>2022-07-14T11:56:07Z</time>
      </trkpt>
      <trkpt lat="46.71708" lon="5.64806">
        <ele>503.39</ele>
        <time>2022-07-14T11:56:08Z</time>
      </trkpt>
      <trkpt lat="46.71703" lon="5.648">
        <ele>502.91</ele>
        <time>2022-07-14T11:56:09Z</time>
      </trkpt>
      <trkpt lat="46.71699" lon="5.64796">
        <ele>503.39</ele>
        <time>2022-07-14T11:56:10Z</time>
      </trkpt>
      <trkpt lat="46.71628" lon="5.64725">
        <ele>503.87</ele>
        <time>2022-07-14T11:56:29Z</time>
      </trkpt>
      <trkpt lat="46.71629" lon="5.64708">
        <ele>503.39</ele>
        <time>2022-07-14T11:56:32Z</time>
      </trkpt>
      <trkpt lat="46.7163" lon="5.64702">
        <ele>502.91</ele>
        <time>2022-07-14T11:56:33Z</time>
      </trkpt>
      <trkpt lat="46.7163" lon="5.64696">
        <ele>503.39</ele>
        <time>2022-07-14T11:56:34Z</time>
      </trkpt>
      <trkpt lat="46.71631" lon="5.64689">
        <ele>503.87</ele>
        <time>2022-07-14T11:56:35Z</time>
      </trkpt>
      <trkpt lat="46.71631" lon="5.64683">
        <ele>502.91</ele>
        <time>2022-07-14T11:56:36Z</time>
      </trkpt>
      <trkpt lat="46.71634" lon="5.64654">
        <ele>501.46</ele>
        <time>2022-07-14T11:56:40Z</time>
      </trkpt>
      <trkpt lat="46.71641" lon="5.64578">
        <ele>500.98</ele>
        <time>2022-07-14T11:56:51Z</time>
      </trkpt>
      <trkpt lat="46.71641" lon="5.64571">
        <ele>500.98</ele>
        <time>2022-07-14T11:56:52Z</time>
      </trkpt>
      <trkpt lat="46.71641" lon="5.64564">
        <ele>500.98</ele>
        <time>2022-07-14T11:56:53Z</time>
      </trkpt>
      <trkpt lat="46.71639" lon="5.64545">
        <ele>501.46</ele>
        <time>2022-07-14T11:56:56Z</time>
      </trkpt>
      <trkpt lat="46.71638" lon="5.64539">
        <ele>501.46</ele>
        <time>2022-07-14T11:56:57Z</time>
      </trkpt>
      <trkpt lat="46.71637" lon="5.64533">
        <ele>501.46</ele>
        <time>2022-07-14T11:56:58Z</time>
      </trkpt>
      <trkpt lat="46.71634" lon="5.64528">
        <ele>501.46</ele>
        <time>2022-07-14T11:56:59Z</time>
      </trkpt>
      <trkpt lat="46.71632" lon="5.64524">
        <ele>501.46</ele>
        <time>2022-07-14T11:57:00Z</time>
      </trkpt>
      <trkpt lat="46.71629" lon="5.64519">
        <ele>501.46</ele>
        <time>2022-07-14T11:57:01Z</time>
      </trkpt>
      <trkpt lat="46.71581" lon="5.64459">
        <ele>501.95</ele>
        <time>2022-07-14T11:57:17Z</time>
      </trkpt>
      <trkpt lat="46.71534" lon="5.64409">
        <ele>503.39</ele>
        <time>2022-07-14T11:57:33Z</time>
      </trkpt>
      <trkpt lat="46.71496" lon="5.64399">
        <ele>504.35</ele>
        <time>2022-07-14T11:57:48Z</time>
      </trkpt>
      <trkpt lat="46.71469" lon="5.644">
        <ele>505.31</ele>
        <time>2022-07-14T11:58:02Z</time>
      </trkpt>
      <trkpt lat="46.71438" lon="5.64408">
        <ele>507.23</ele>
        <time>2022-07-14T11:58:16Z</time>
      </trkpt>
      <trkpt lat="46.71396" lon="5.64436">
        <ele>505.79</ele>
        <time>2022-07-14T11:58:30Z</time>
      </trkpt>
      <trkpt lat="46.71355" lon="5.64447">
        <ele>504.83</ele>
        <time>2022-07-14T11:58:43Z</time>
      </trkpt>
      <trkpt lat="46.71349" lon="5.64447">
        <ele>506.27</ele>
        <time>2022-07-14T11:58:54Z</time>
      </trkpt>
      <trkpt lat="46.71347" lon="5.64445">
        <ele>502.91</ele>
        <time>2022-07-14T11:59:02Z</time>
      </trkpt>
      <trkpt lat="46.71347" lon="5.64445">
        <ele>505.31</ele>
        <time>2022-07-14T11:59:03Z</time>
      </trkpt>
      <trkpt lat="46.71347" lon="5.64445">
        <ele>507.23</ele>
        <time>2022-07-14T12:24:22Z</time>
      </trkpt>
      <trkpt lat="46.71353" lon="5.64454">
        <ele>506.27</ele>
        <time>2022-07-14T12:24:26Z</time>
      </trkpt>
      <trkpt lat="46.71353" lon="5.64457">
        <ele>507.23</ele>
        <time>2022-07-14T12:24:27Z</time>
      </trkpt>
      <trkpt lat="46.71354" lon="5.64459">
        <ele>506.27</ele>
        <time>2022-07-14T12:24:28Z</time>
      </trkpt>
      <trkpt lat="46.71354" lon="5.64461">
        <ele>506.75</ele>
        <time>2022-07-14T12:24:29Z</time>
      </trkpt>
      <trkpt lat="46.71355" lon="5.64463">
        <ele>506.27</ele>
        <time>2022-07-14T12:24:30Z</time>
      </trkpt>
      <trkpt lat="46.71355" lon="5.64464">
        <ele>505.79</ele>
        <time>2022-07-14T12:24:31Z</time>
      </trkpt>
      <trkpt lat="46.71352" lon="5.64493">
        <ele>503.39</ele>
        <time>2022-07-14T12:24:43Z</time>
      </trkpt>
      <trkpt lat="46.71352" lon="5.64494">
        <ele>502.91</ele>
        <time>2022-07-14T12:24:44Z</time>
      </trkpt>
      <trkpt lat="46.7135" lon="5.64495">
        <ele>502.91</ele>
        <time>2022-07-14T12:24:45Z</time>
      </trkpt>
      <trkpt lat="46.71349" lon="5.64496">
        <ele>502.91</ele>
        <time>2022-07-14T12:24:46Z</time>
      </trkpt>
      <trkpt lat="46.71347" lon="5.64497">
        <ele>502.43</ele>
        <time>2022-07-14T12:24:47Z</time>
      </trkpt>
      <trkpt lat="46.71345" lon="5.64498">
        <ele>502.43</ele>
        <time>2022-07-14T12:24:48Z</time>
      </trkpt>
      <trkpt lat="46.71315" lon="5.64502">
        <ele>501.46</ele>
        <time>2022-07-14T12:25:00Z</time>
      </trkpt>
      <trkpt lat="46.71314" lon="5.64503">
        <ele>501.46</ele>
        <time>2022-07-14T12:25:12Z</time>
      </trkpt>
      <trkpt lat="46.71314" lon="5.64503">
        <ele>501.46</ele>
        <time>2022-07-14T12:25:48Z</time>
      </trkpt>
      <trkpt lat="46.71314" lon="5.64501">
        <ele>501.46</ele>
        <time>2022-07-14T12:26:30Z</time>
      </trkpt>
      <trkpt lat="46.71311" lon="5.64501">
        <ele>500.98</ele>
        <time>2022-07-14T12:26:55Z</time>
      </trkpt>
      <trkpt lat="46.71313" lon="5.64502">
        <ele>501.46</ele>
        <time>2022-07-14T12:26:59Z</time>
      </trkpt>
      <trkpt lat="46.71314" lon="5.64503">
        <ele>501.46</ele>
        <time>2022-07-14T12:27:00Z</time>
      </trkpt>
      <trkpt lat="46.71333" lon="5.64499">
        <ele>502.43</ele>
        <time>2022-07-14T12:27:13Z</time>
      </trkpt>
      <trkpt lat="46.71355" lon="5.64492">
        <ele>502.43</ele>
        <time>2022-07-14T12:27:27Z</time>
      </trkpt>
      <trkpt lat="46.71356" lon="5.64491">
        <ele>502.43</ele>
        <time>2022-07-14T12:27:28Z</time>
      </trkpt>
      <trkpt lat="46.7136" lon="5.64492">
        <ele>501.95</ele>
        <time>2022-07-14T12:27:31Z</time>
      </trkpt>
      <trkpt lat="46.71367" lon="5.64481">
        <ele>502.91</ele>
        <time>2022-07-14T12:27:38Z</time>
      </trkpt>
      <trkpt lat="46.71369" lon="5.64482">
        <ele>502.91</ele>
        <time>2022-07-14T12:27:39Z</time>
      </trkpt>
      <trkpt lat="46.7137" lon="5.64483">
        <ele>502.91</ele>
        <time>2022-07-14T12:27:40Z</time>
      </trkpt>
      <trkpt lat="46.71372" lon="5.64485">
        <ele>502.91</ele>
        <time>2022-07-14T12:27:41Z</time>
      </trkpt>
      <trkpt lat="46.71372" lon="5.64487">
        <ele>503.39</ele>
        <time>2022-07-14T12:27:42Z</time>
      </trkpt>
      <trkpt lat="46.71371" lon="5.6449">
        <ele>502.91</ele>
        <time>2022-07-14T12:27:43Z</time>
      </trkpt>
      <trkpt lat="46.7137" lon="5.64492">
        <ele>502.43</ele>
        <time>2022-07-14T12:27:44Z</time>
      </trkpt>
      <trkpt lat="46.71369" lon="5.64495">
        <ele>502.43</ele>
        <time>2022-07-14T12:27:45Z</time>
      </trkpt>
      <trkpt lat="46.71368" lon="5.64497">
        <ele>502.91</ele>
        <time>2022-07-14T12:27:46Z</time>
      </trkpt>
      <trkpt lat="46.71368" lon="5.64501">
        <ele>502.43</ele>
        <time>2022-07-14T12:27:47Z</time>
      </trkpt>
      <trkpt lat="46.71367" lon="5.64504">
        <ele>502.43</ele>
        <time>2022-07-14T12:27:48Z</time>
      </trkpt>
      <trkpt lat="46.71365" lon="5.64567">
        <ele>501.95</ele>
        <time>2022-07-14T12:27:59Z</time>
      </trkpt>
      <trkpt lat="46.71355" lon="5.64613">
        <ele>502.91</ele>
        <time>2022-07-14T12:28:11Z</time>
      </trkpt>
      <trkpt lat="46.71331" lon="5.64666">
        <ele>504.83</ele>
        <time>2022-07-14T12:28:28Z</time>
      </trkpt>
      <trkpt lat="46.71318" lon="5.64707">
        <ele>506.75</ele>
        <time>2022-07-14T12:28:42Z</time>
      </trkpt>
      <trkpt lat="46.71292" lon="5.64761">
        <ele>509.64</ele>
        <time>2022-07-14T12:29:01Z</time>
      </trkpt>
      <trkpt lat="46.71254" lon="5.64825">
        <ele>510.6</ele>
        <time>2022-07-14T12:29:20Z</time>
      </trkpt>
      <trkpt lat="46.71232" lon="5.64863">
        <ele>509.16</ele>
        <time>2022-07-14T12:29:28Z</time>
      </trkpt>
      <trkpt lat="46.71225" lon="5.64876">
        <ele>508.19</ele>
        <time>2022-07-14T12:29:30Z</time>
      </trkpt>
      <trkpt lat="46.71162" lon="5.64963">
        <ele>504.83</ele>
        <time>2022-07-14T12:29:42Z</time>
      </trkpt>
      <trkpt lat="46.71104" lon="5.65037">
        <ele>504.35</ele>
        <time>2022-07-14T12:29:53Z</time>
      </trkpt>
      <trkpt lat="46.711" lon="5.65043">
        <ele>503.87</ele>
        <time>2022-07-14T12:29:54Z</time>
      </trkpt>
      <trkpt lat="46.71054" lon="5.65118">
        <ele>503.87</ele>
        <time>2022-07-14T12:30:08Z</time>
      </trkpt>
      <trkpt lat="46.71028" lon="5.65198">
        <ele>505.31</ele>
        <time>2022-07-14T12:30:23Z</time>
      </trkpt>
      <trkpt lat="46.71013" lon="5.65289">
        <ele>507.23</ele>
        <time>2022-07-14T12:30:42Z</time>
      </trkpt>
      <trkpt lat="46.70992" lon="5.6542">
        <ele>506.75</ele>
        <time>2022-07-14T12:31:02Z</time>
      </trkpt>
      <trkpt lat="46.7098" lon="5.65548">
        <ele>506.75</ele>
        <time>2022-07-14T12:31:20Z</time>
      </trkpt>
      <trkpt lat="46.70979" lon="5.65575">
        <ele>506.75</ele>
        <time>2022-07-14T12:31:24Z</time>
      </trkpt>
      <trkpt lat="46.70979" lon="5.65582">
        <ele>507.23</ele>
        <time>2022-07-14T12:31:25Z</time>
      </trkpt>
      <trkpt lat="46.70979" lon="5.65589">
        <ele>506.75</ele>
        <time>2022-07-14T12:31:26Z</time>
      </trkpt>
      <trkpt lat="46.70979" lon="5.65596">
        <ele>506.75</ele>
        <time>2022-07-14T12:31:27Z</time>
      </trkpt>
      <trkpt lat="46.70978" lon="5.65602">
        <ele>506.75</ele>
        <time>2022-07-14T12:31:28Z</time>
      </trkpt>
      <trkpt lat="46.70961" lon="5.65697">
        <ele>508.67</ele>
        <time>2022-07-14T12:31:45Z</time>
      </trkpt>
      <trkpt lat="46.70931" lon="5.65773">
        <ele>510.12</ele>
        <time>2022-07-14T12:32:02Z</time>
      </trkpt>
      <trkpt lat="46.709" lon="5.65833">
        <ele>511.08</ele>
        <time>2022-07-14T12:32:17Z</time>
      </trkpt>
      <trkpt lat="46.70894" lon="5.65841">
        <ele>511.08</ele>
        <time>2022-07-14T12:32:20Z</time>
      </trkpt>
      <trkpt lat="46.70894" lon="5.65845">
        <ele>511.08</ele>
        <time>2022-07-14T12:32:21Z</time>
      </trkpt>
      <trkpt lat="46.70898" lon="5.65845">
        <ele>511.08</ele>
        <time>2022-07-14T12:32:23Z</time>
      </trkpt>
      <trkpt lat="46.70899" lon="5.65843">
        <ele>511.56</ele>
        <time>2022-07-14T12:32:24Z</time>
      </trkpt>
      <trkpt lat="46.70901" lon="5.65841">
        <ele>511.08</ele>
        <time>2022-07-14T12:32:25Z</time>
      </trkpt>
      <trkpt lat="46.70917" lon="5.6581">
        <ele>511.08</ele>
        <time>2022-07-14T12:32:39Z</time>
      </trkpt>
      <trkpt lat="46.70913" lon="5.65811">
        <ele>511.08</ele>
        <time>2022-07-14T12:32:47Z</time>
      </trkpt>
      <trkpt lat="46.70913" lon="5.65813">
        <ele>511.56</ele>
        <time>2022-07-14T12:33:00Z</time>
      </trkpt>
      <trkpt lat="46.70891" lon="5.65846">
        <ele>511.08</ele>
        <time>2022-07-14T12:33:13Z</time>
      </trkpt>
      <trkpt lat="46.70841" lon="5.65905">
        <ele>512.04</ele>
        <time>2022-07-14T12:33:30Z</time>
      </trkpt>
      <trkpt lat="46.70786" lon="5.65935">
        <ele>511.08</ele>
        <time>2022-07-14T12:33:45Z</time>
      </trkpt>
      <trkpt lat="46.70711" lon="5.65976">
        <ele>508.67</ele>
        <time>2022-07-14T12:34:03Z</time>
      </trkpt>
      <trkpt lat="46.70661" lon="5.66001">
        <ele>507.23</ele>
        <time>2022-07-14T12:34:14Z</time>
      </trkpt>
      <trkpt lat="46.70655" lon="5.66003">
        <ele>506.75</ele>
        <time>2022-07-14T12:34:15Z</time>
      </trkpt>
      <trkpt lat="46.70649" lon="5.66004">
        <ele>506.75</ele>
        <time>2022-07-14T12:34:16Z</time>
      </trkpt>
      <trkpt lat="46.70643" lon="5.66004">
        <ele>506.27</ele>
        <time>2022-07-14T12:34:17Z</time>
      </trkpt>
      <trkpt lat="46.70638" lon="5.66002">
        <ele>506.75</ele>
        <time>2022-07-14T12:34:18Z</time>
      </trkpt>
      <trkpt lat="46.70634" lon="5.65997">
        <ele>506.27</ele>
        <time>2022-07-14T12:34:19Z</time>
      </trkpt>
      <trkpt lat="46.7063" lon="5.6599">
        <ele>506.27</ele>
        <time>2022-07-14T12:34:20Z</time>
      </trkpt>
      <trkpt lat="46.70629" lon="5.65982">
        <ele>505.31</ele>
        <time>2022-07-14T12:34:21Z</time>
      </trkpt>
      <trkpt lat="46.70628" lon="5.65973">
        <ele>504.83</ele>
        <time>2022-07-14T12:34:22Z</time>
      </trkpt>
      <trkpt lat="46.70629" lon="5.65964">
        <ele>504.83</ele>
        <time>2022-07-14T12:34:23Z</time>
      </trkpt>
      <trkpt lat="46.70631" lon="5.65956">
        <ele>504.83</ele>
        <time>2022-07-14T12:34:24Z</time>
      </trkpt>
      <trkpt lat="46.70634" lon="5.65948">
        <ele>504.83</ele>
        <time>2022-07-14T12:34:25Z</time>
      </trkpt>
      <trkpt lat="46.70637" lon="5.65941">
        <ele>504.35</ele>
        <time>2022-07-14T12:34:26Z</time>
      </trkpt>
      <trkpt lat="46.70641" lon="5.65934">
        <ele>504.35</ele>
        <time>2022-07-14T12:34:27Z</time>
      </trkpt>
      <trkpt lat="46.70663" lon="5.65903">
        <ele>502.43</ele>
        <time>2022-07-14T12:34:32Z</time>
      </trkpt>
      <trkpt lat="46.70668" lon="5.65898">
        <ele>502.43</ele>
        <time>2022-07-14T12:34:33Z</time>
      </trkpt>
      <trkpt lat="46.70675" lon="5.65894">
        <ele>501.46</ele>
        <time>2022-07-14T12:34:34Z</time>
      </trkpt>
      <trkpt lat="46.70682" lon="5.65891">
        <ele>500.98</ele>
        <time>2022-07-14T12:34:35Z</time>
      </trkpt>
      <trkpt lat="46.7069" lon="5.6589">
        <ele>500.02</ele>
        <time>2022-07-14T12:34:36Z</time>
      </trkpt>
      <trkpt lat="46.70698" lon="5.65891">
        <ele>499.54</ele>
        <time>2022-07-14T12:34:37Z</time>
      </trkpt>
      <trkpt lat="46.70706" lon="5.65892">
        <ele>498.58</ele>
        <time>2022-07-14T12:34:38Z</time>
      </trkpt>
      <trkpt lat="46.70741" lon="5.65903">
        <ele>495.22</ele>
        <time>2022-07-14T12:34:42Z</time>
      </trkpt>
      <trkpt lat="46.70751" lon="5.65905">
        <ele>494.26</ele>
        <time>2022-07-14T12:34:43Z</time>
      </trkpt>
      <trkpt lat="46.7076" lon="5.65905">
        <ele>493.29</ele>
        <time>2022-07-14T12:34:44Z</time>
      </trkpt>
      <trkpt lat="46.70769" lon="5.65904">
        <ele>492.33</ele>
        <time>2022-07-14T12:34:45Z</time>
      </trkpt>
      <trkpt lat="46.70778" lon="5.659">
        <ele>492.33</ele>
        <time>2022-07-14T12:34:46Z</time>
      </trkpt>
      <trkpt lat="46.70788" lon="5.65894">
        <ele>491.37</ele>
        <time>2022-07-14T12:34:47Z</time>
      </trkpt>
      <trkpt lat="46.70797" lon="5.65886">
        <ele>489.93</ele>
        <time>2022-07-14T12:34:48Z</time>
      </trkpt>
      <trkpt lat="46.70833" lon="5.65852">
        <ele>487.05</ele>
        <time>2022-07-14T12:34:52Z</time>
      </trkpt>
      <trkpt lat="46.70866" lon="5.65807">
        <ele>483.2</ele>
        <time>2022-07-14T12:34:56Z</time>
      </trkpt>
      <trkpt lat="46.70872" lon="5.65795">
        <ele>482.24</ele>
        <time>2022-07-14T12:34:57Z</time>
      </trkpt>
      <trkpt lat="46.70878" lon="5.65781">
        <ele>481.76</ele>
        <time>2022-07-14T12:34:58Z</time>
      </trkpt>
      <trkpt lat="46.70902" lon="5.65725">
        <ele>477.91</ele>
        <time>2022-07-14T12:35:02Z</time>
      </trkpt>
      <trkpt lat="46.70907" lon="5.6571">
        <ele>477.43</ele>
        <time>2022-07-14T12:35:03Z</time>
      </trkpt>
      <trkpt lat="46.70911" lon="5.65694">
        <ele>475.99</ele>
        <time>2022-07-14T12:35:04Z</time>
      </trkpt>
      <trkpt lat="46.7092" lon="5.65631">
        <ele>472.14</ele>
        <time>2022-07-14T12:35:08Z</time>
      </trkpt>
      <trkpt lat="46.70921" lon="5.65614">
        <ele>471.66</ele>
        <time>2022-07-14T12:35:09Z</time>
      </trkpt>
      <trkpt lat="46.70921" lon="5.65597">
        <ele>471.18</ele>
        <time>2022-07-14T12:35:10Z</time>
      </trkpt>
      <trkpt lat="46.7092" lon="5.65581">
        <ele>469.74</ele>
        <time>2022-07-14T12:35:11Z</time>
      </trkpt>
      <trkpt lat="46.70918" lon="5.65564">
        <ele>468.78</ele>
        <time>2022-07-14T12:35:12Z</time>
      </trkpt>
      <trkpt lat="46.70916" lon="5.65548">
        <ele>467.34</ele>
        <time>2022-07-14T12:35:13Z</time>
      </trkpt>
      <trkpt lat="46.70903" lon="5.65486">
        <ele>463.49</ele>
        <time>2022-07-14T12:35:17Z</time>
      </trkpt>
      <trkpt lat="46.70895" lon="5.65455">
        <ele>461.57</ele>
        <time>2022-07-14T12:35:19Z</time>
      </trkpt>
      <trkpt lat="46.70893" lon="5.65438">
        <ele>460.61</ele>
        <time>2022-07-14T12:35:20Z</time>
      </trkpt>
      <trkpt lat="46.70891" lon="5.65422">
        <ele>458.69</ele>
        <time>2022-07-14T12:35:21Z</time>
      </trkpt>
      <trkpt lat="46.70886" lon="5.65353">
        <ele>455.32</ele>
        <time>2022-07-14T12:35:25Z</time>
      </trkpt>
      <trkpt lat="46.70876" lon="5.65305">
        <ele>451.96</ele>
        <time>2022-07-14T12:35:28Z</time>
      </trkpt>
      <trkpt lat="46.70865" lon="5.65259">
        <ele>448.11</ele>
        <time>2022-07-14T12:35:31Z</time>
      </trkpt>
      <trkpt lat="46.70864" lon="5.65242">
        <ele>447.63</ele>
        <time>2022-07-14T12:35:32Z</time>
      </trkpt>
      <trkpt lat="46.70865" lon="5.65225">
        <ele>446.67</ele>
        <time>2022-07-14T12:35:33Z</time>
      </trkpt>
      <trkpt lat="46.70866" lon="5.65208">
        <ele>445.23</ele>
        <time>2022-07-14T12:35:34Z</time>
      </trkpt>
      <trkpt lat="46.70868" lon="5.65192">
        <ele>444.75</ele>
        <time>2022-07-14T12:35:35Z</time>
      </trkpt>
      <trkpt lat="46.7087" lon="5.65175">
        <ele>444.27</ele>
        <time>2022-07-14T12:35:36Z</time>
      </trkpt>
      <trkpt lat="46.70872" lon="5.65159">
        <ele>443.79</ele>
        <time>2022-07-14T12:35:37Z</time>
      </trkpt>
      <trkpt lat="46.70875" lon="5.65129">
        <ele>441.38</ele>
        <time>2022-07-14T12:35:39Z</time>
      </trkpt>
      <trkpt lat="46.70879" lon="5.65116">
        <ele>440.42</ele>
        <time>2022-07-14T12:35:40Z</time>
      </trkpt>
      <trkpt lat="46.70885" lon="5.65105">
        <ele>440.42</ele>
        <time>2022-07-14T12:35:41Z</time>
      </trkpt>
      <trkpt lat="46.70893" lon="5.65095">
        <ele>438.5</ele>
        <time>2022-07-14T12:35:42Z</time>
      </trkpt>
      <trkpt lat="46.70902" lon="5.65086">
        <ele>437.06</ele>
        <time>2022-07-14T12:35:43Z</time>
      </trkpt>
      <trkpt lat="46.70912" lon="5.65079">
        <ele>435.61</ele>
        <time>2022-07-14T12:35:44Z</time>
      </trkpt>
      <trkpt lat="46.70921" lon="5.65072">
        <ele>435.13</ele>
        <time>2022-07-14T12:35:45Z</time>
      </trkpt>
      <trkpt lat="46.7095" lon="5.65049">
        <ele>432.25</ele>
        <time>2022-07-14T12:35:48Z</time>
      </trkpt>
      <trkpt lat="46.70975" lon="5.65022">
        <ele>429.37</ele>
        <time>2022-07-14T12:35:51Z</time>
      </trkpt>
      <trkpt lat="46.71002" lon="5.64991">
        <ele>425.04</ele>
        <time>2022-07-14T12:35:55Z</time>
      </trkpt>
      <trkpt lat="46.71008" lon="5.64984">
        <ele>425.52</ele>
        <time>2022-07-14T12:35:56Z</time>
      </trkpt>
      <trkpt lat="46.71021" lon="5.64969">
        <ele>424.08</ele>
        <time>2022-07-14T12:35:58Z</time>
      </trkpt>
      <trkpt lat="46.71026" lon="5.6496">
        <ele>423.6</ele>
        <time>2022-07-14T12:35:59Z</time>
      </trkpt>
      <trkpt lat="46.71031" lon="5.64949">
        <ele>423.12</ele>
        <time>2022-07-14T12:36:00Z</time>
      </trkpt>
      <trkpt lat="46.71036" lon="5.64938">
        <ele>422.16</ele>
        <time>2022-07-14T12:36:01Z</time>
      </trkpt>
      <trkpt lat="46.71042" lon="5.64927">
        <ele>421.19</ele>
        <time>2022-07-14T12:36:02Z</time>
      </trkpt>
      <trkpt lat="46.71047" lon="5.64917">
        <ele>420.71</ele>
        <time>2022-07-14T12:36:03Z</time>
      </trkpt>
      <trkpt lat="46.71073" lon="5.64876">
        <ele>416.87</ele>
        <time>2022-07-14T12:36:07Z</time>
      </trkpt>
      <trkpt lat="46.71107" lon="5.64825">
        <ele>413.02</ele>
        <time>2022-07-14T12:36:12Z</time>
      </trkpt>
      <trkpt lat="46.71127" lon="5.64791">
        <ele>411.58</ele>
        <time>2022-07-14T12:36:15Z</time>
      </trkpt>
      <trkpt lat="46.71151" lon="5.64742">
        <ele>408.7</ele>
        <time>2022-07-14T12:36:19Z</time>
      </trkpt>
      <trkpt lat="46.71163" lon="5.64716">
        <ele>404.85</ele>
        <time>2022-07-14T12:36:21Z</time>
      </trkpt>
      <trkpt lat="46.71169" lon="5.64703">
        <ele>404.85</ele>
        <time>2022-07-14T12:36:22Z</time>
      </trkpt>
      <trkpt lat="46.71185" lon="5.6466">
        <ele>401.49</ele>
        <time>2022-07-14T12:36:25Z</time>
      </trkpt>
      <trkpt lat="46.71205" lon="5.64605">
        <ele>397.16</ele>
        <time>2022-07-14T12:36:29Z</time>
      </trkpt>
      <trkpt lat="46.71218" lon="5.64571">
        <ele>393.32</ele>
        <time>2022-07-14T12:36:32Z</time>
      </trkpt>
      <trkpt lat="46.71221" lon="5.6456">
        <ele>392.84</ele>
        <time>2022-07-14T12:36:33Z</time>
      </trkpt>
      <trkpt lat="46.71222" lon="5.6455">
        <ele>392.36</ele>
        <time>2022-07-14T12:36:34Z</time>
      </trkpt>
      <trkpt lat="46.7122" lon="5.64543">
        <ele>391.87</ele>
        <time>2022-07-14T12:36:35Z</time>
      </trkpt>
      <trkpt lat="46.71217" lon="5.64538">
        <ele>392.84</ele>
        <time>2022-07-14T12:36:36Z</time>
      </trkpt>
      <trkpt lat="46.71213" lon="5.64537">
        <ele>392.36</ele>
        <time>2022-07-14T12:36:37Z</time>
      </trkpt>
      <trkpt lat="46.7121" lon="5.64539">
        <ele>391.87</ele>
        <time>2022-07-14T12:36:38Z</time>
      </trkpt>
      <trkpt lat="46.71209" lon="5.64541">
        <ele>391.39</ele>
        <time>2022-07-14T12:36:39Z</time>
      </trkpt>
      <trkpt lat="46.7121" lon="5.64544">
        <ele>390.91</ele>
        <time>2022-07-14T12:36:46Z</time>
      </trkpt>
      <trkpt lat="46.71209" lon="5.64546">
        <ele>390.91</ele>
        <time>2022-07-14T12:36:47Z</time>
      </trkpt>
      <trkpt lat="46.71208" lon="5.64548">
        <ele>391.39</ele>
        <time>2022-07-14T12:36:48Z</time>
      </trkpt>
      <trkpt lat="46.71207" lon="5.64551">
        <ele>390.91</ele>
        <time>2022-07-14T12:36:49Z</time>
      </trkpt>
      <trkpt lat="46.71205" lon="5.64556">
        <ele>389.95</ele>
        <time>2022-07-14T12:36:50Z</time>
      </trkpt>
      <trkpt lat="46.71204" lon="5.64561">
        <ele>389.95</ele>
        <time>2022-07-14T12:36:51Z</time>
      </trkpt>
      <trkpt lat="46.71187" lon="5.646">
        <ele>386.59</ele>
        <time>2022-07-14T12:36:56Z</time>
      </trkpt>
      <trkpt lat="46.71159" lon="5.64645">
        <ele>383.22</ele>
        <time>2022-07-14T12:37:01Z</time>
      </trkpt>
      <trkpt lat="46.7113" lon="5.64679">
        <ele>379.86</ele>
        <time>2022-07-14T12:37:05Z</time>
      </trkpt>
      <trkpt lat="46.71098" lon="5.64715">
        <ele>376.01</ele>
        <time>2022-07-14T12:37:09Z</time>
      </trkpt>
      <trkpt lat="46.71047" lon="5.64771">
        <ele>372.17</ele>
        <time>2022-07-14T12:37:15Z</time>
      </trkpt>
      <trkpt lat="46.71029" lon="5.64787">
        <ele>370.73</ele>
        <time>2022-07-14T12:37:17Z</time>
      </trkpt>
      <trkpt lat="46.7102" lon="5.64793">
        <ele>369.28</ele>
        <time>2022-07-14T12:37:18Z</time>
      </trkpt>
      <trkpt lat="46.7101" lon="5.64799">
        <ele>368.8</ele>
        <time>2022-07-14T12:37:19Z</time>
      </trkpt>
      <trkpt lat="46.71" lon="5.64803">
        <ele>368.8</ele>
        <time>2022-07-14T12:37:20Z</time>
      </trkpt>
      <trkpt lat="46.7099" lon="5.64807">
        <ele>367.36</ele>
        <time>2022-07-14T12:37:21Z</time>
      </trkpt>
      <trkpt lat="46.7098" lon="5.64809">
        <ele>367.36</ele>
        <time>2022-07-14T12:37:22Z</time>
      </trkpt>
      <trkpt lat="46.70972" lon="5.64812">
        <ele>366.4</ele>
        <time>2022-07-14T12:37:23Z</time>
      </trkpt>
      <trkpt lat="46.70948" lon="5.64822">
        <ele>363.52</ele>
        <time>2022-07-14T12:37:26Z</time>
      </trkpt>
      <trkpt lat="46.70941" lon="5.64829">
        <ele>363.04</ele>
        <time>2022-07-14T12:37:27Z</time>
      </trkpt>
      <trkpt lat="46.70935" lon="5.64835">
        <ele>362.55</ele>
        <time>2022-07-14T12:37:28Z</time>
      </trkpt>
      <trkpt lat="46.70903" lon="5.64858">
        <ele>359.19</ele>
        <time>2022-07-14T12:37:33Z</time>
      </trkpt>
      <trkpt lat="46.70897" lon="5.64861">
        <ele>358.71</ele>
        <time>2022-07-14T12:37:34Z</time>
      </trkpt>
      <trkpt lat="46.70875" lon="5.64872">
        <ele>356.31</ele>
        <time>2022-07-14T12:37:42Z</time>
      </trkpt>
      <trkpt lat="46.70872" lon="5.64865">
        <ele>356.79</ele>
        <time>2022-07-14T12:38:07Z</time>
      </trkpt>
      <trkpt lat="46.70871" lon="5.64868">
        <ele>356.31</ele>
        <time>2022-07-14T12:38:36Z</time>
      </trkpt>
      <trkpt lat="46.7087" lon="5.64871">
        <ele>356.31</ele>
        <time>2022-07-14T12:38:37Z</time>
      </trkpt>
      <trkpt lat="46.70869" lon="5.64874">
        <ele>356.31</ele>
        <time>2022-07-14T12:38:38Z</time>
      </trkpt>
      <trkpt lat="46.70869" lon="5.64878">
        <ele>355.83</ele>
        <time>2022-07-14T12:38:39Z</time>
      </trkpt>
      <trkpt lat="46.70867" lon="5.64882">
        <ele>355.34</ele>
        <time>2022-07-14T12:38:40Z</time>
      </trkpt>
      <trkpt lat="46.70866" lon="5.64887">
        <ele>355.34</ele>
        <time>2022-07-14T12:38:41Z</time>
      </trkpt>
      <trkpt lat="46.70864" lon="5.64892">
        <ele>355.34</ele>
        <time>2022-07-14T12:38:42Z</time>
      </trkpt>
      <trkpt lat="46.70852" lon="5.64916">
        <ele>353.9</ele>
        <time>2022-07-14T12:38:46Z</time>
      </trkpt>
      <trkpt lat="46.70848" lon="5.64921">
        <ele>354.38</ele>
        <time>2022-07-14T12:38:47Z</time>
      </trkpt>
      <trkpt lat="46.70843" lon="5.64924">
        <ele>353.42</ele>
        <time>2022-07-14T12:38:48Z</time>
      </trkpt>
      <trkpt lat="46.70832" lon="5.64928">
        <ele>351.5</ele>
        <time>2022-07-14T12:38:50Z</time>
      </trkpt>
      <trkpt lat="46.70828" lon="5.64925">
        <ele>351.02</ele>
        <time>2022-07-14T12:38:51Z</time>
      </trkpt>
      <trkpt lat="46.70826" lon="5.64917">
        <ele>349.58</ele>
        <time>2022-07-14T12:38:52Z</time>
      </trkpt>
      <trkpt lat="46.70828" lon="5.64909">
        <ele>350.06</ele>
        <time>2022-07-14T12:38:53Z</time>
      </trkpt>
      <trkpt lat="46.7083" lon="5.649">
        <ele>349.1</ele>
        <time>2022-07-14T12:38:54Z</time>
      </trkpt>
      <trkpt lat="46.70833" lon="5.64891">
        <ele>348.62</ele>
        <time>2022-07-14T12:38:55Z</time>
      </trkpt>
      <trkpt lat="46.70858" lon="5.64831">
        <ele>345.73</ele>
        <time>2022-07-14T12:39:02Z</time>
      </trkpt>
      <trkpt lat="46.70879" lon="5.64786">
        <ele>342.37</ele>
        <time>2022-07-14T12:39:08Z</time>
      </trkpt>
      <trkpt lat="46.70885" lon="5.64774">
        <ele>341.89</ele>
        <time>2022-07-14T12:39:10Z</time>
      </trkpt>
      <trkpt lat="46.7089" lon="5.64764">
        <ele>340.44</ele>
        <time>2022-07-14T12:39:12Z</time>
      </trkpt>
      <trkpt lat="46.70893" lon="5.64759">
        <ele>339.48</ele>
        <time>2022-07-14T12:39:13Z</time>
      </trkpt>
      <trkpt lat="46.70904" lon="5.64744">
        <ele>337.08</ele>
        <time>2022-07-14T12:39:18Z</time>
      </trkpt>
      <trkpt lat="46.70904" lon="5.64741">
        <ele>336.6</ele>
        <time>2022-07-14T12:39:19Z</time>
      </trkpt>
      <trkpt lat="46.70904" lon="5.64739">
        <ele>336.12</ele>
        <time>2022-07-14T12:39:31Z</time>
      </trkpt>
      <trkpt lat="46.70907" lon="5.64739">
        <ele>335.64</ele>
        <time>2022-07-14T12:39:44Z</time>
      </trkpt>
      <trkpt lat="46.70909" lon="5.64739">
        <ele>336.12</ele>
        <time>2022-07-14T12:39:45Z</time>
      </trkpt>
      <trkpt lat="46.70911" lon="5.64737">
        <ele>335.64</ele>
        <time>2022-07-14T12:39:46Z</time>
      </trkpt>
      <trkpt lat="46.70913" lon="5.64734">
        <ele>335.64</ele>
        <time>2022-07-14T12:39:47Z</time>
      </trkpt>
      <trkpt lat="46.70915" lon="5.64731">
        <ele>335.16</ele>
        <time>2022-07-14T12:39:48Z</time>
      </trkpt>
      <trkpt lat="46.70917" lon="5.64727">
        <ele>335.16</ele>
        <time>2022-07-14T12:39:49Z</time>
      </trkpt>
      <trkpt lat="46.7092" lon="5.64723">
        <ele>334.68</ele>
        <time>2022-07-14T12:39:50Z</time>
      </trkpt>
      <trkpt lat="46.70922" lon="5.64718">
        <ele>333.71</ele>
        <time>2022-07-14T12:39:51Z</time>
      </trkpt>
      <trkpt lat="46.70924" lon="5.64714">
        <ele>333.23</ele>
        <time>2022-07-14T12:39:52Z</time>
      </trkpt>
      <trkpt lat="46.70926" lon="5.64711">
        <ele>333.23</ele>
        <time>2022-07-14T12:39:53Z</time>
      </trkpt>
      <trkpt lat="46.70928" lon="5.64708">
        <ele>332.75</ele>
        <time>2022-07-14T12:39:54Z</time>
      </trkpt>
      <trkpt lat="46.7093" lon="5.64705">
        <ele>332.27</ele>
        <time>2022-07-14T12:39:55Z</time>
      </trkpt>
      <trkpt lat="46.70931" lon="5.64702">
        <ele>332.75</ele>
        <time>2022-07-14T12:39:56Z</time>
      </trkpt>
      <trkpt lat="46.70932" lon="5.647">
        <ele>332.27</ele>
        <time>2022-07-14T12:39:57Z</time>
      </trkpt>
      <trkpt lat="46.70932" lon="5.647">
        <ele>332.27</ele>
        <time>2022-07-14T12:39:58Z</time>
      </trkpt>
      <trkpt lat="46.70923" lon="5.64704">
        <ele>331.31</ele>
        <time>2022-07-14T12:40:01Z</time>
      </trkpt>
      <trkpt lat="46.70887" lon="5.64726">
        <ele>330.35</ele>
        <time>2022-07-14T12:40:11Z</time>
      </trkpt>
      <trkpt lat="46.70864" lon="5.64755">
        <ele>330.83</ele>
        <time>2022-07-14T12:40:21Z</time>
      </trkpt>
      <trkpt lat="46.70862" lon="5.64756">
        <ele>331.31</ele>
        <time>2022-07-14T12:40:22Z</time>
      </trkpt>
      <trkpt lat="46.70858" lon="5.64756">
        <ele>330.83</ele>
        <time>2022-07-14T12:40:31Z</time>
      </trkpt>
      <trkpt lat="46.70859" lon="5.64754">
        <ele>329.87</ele>
        <time>2022-07-14T12:40:40Z</time>
      </trkpt>
      <trkpt lat="46.70858" lon="5.64756">
        <ele>332.75</ele>
        <time>2022-07-14T13:15:00Z</time>
      </trkpt>
      <trkpt lat="46.70845" lon="5.64762">
        <ele>331.79</ele>
        <time>2022-07-14T13:15:01Z</time>
      </trkpt>
      <trkpt lat="46.70844" lon="5.64765">
        <ele>328.43</ele>
        <time>2022-07-14T13:15:18Z</time>
      </trkpt>
      <trkpt lat="46.70845" lon="5.64763">
        <ele>326.99</ele>
        <time>2022-07-14T13:15:20Z</time>
      </trkpt>
      <trkpt lat="46.70848" lon="5.64761">
        <ele>325.54</ele>
        <time>2022-07-14T13:15:23Z</time>
      </trkpt>
      <trkpt lat="46.70848" lon="5.64758">
        <ele>324.1</ele>
        <time>2022-07-14T13:15:26Z</time>
      </trkpt>
      <trkpt lat="46.7085" lon="5.64756">
        <ele>323.14</ele>
        <time>2022-07-14T13:15:28Z</time>
      </trkpt>
      <trkpt lat="46.70859" lon="5.64755">
        <ele>321.22</ele>
        <time>2022-07-14T13:15:32Z</time>
      </trkpt>
      <trkpt lat="46.70893" lon="5.64722">
        <ele>320.26</ele>
        <time>2022-07-14T13:15:45Z</time>
      </trkpt>
      <trkpt lat="46.70924" lon="5.64699">
        <ele>321.22</ele>
        <time>2022-07-14T13:15:59Z</time>
      </trkpt>
      <trkpt lat="46.70951" lon="5.64682">
        <ele>320.74</ele>
        <time>2022-07-14T13:16:09Z</time>
      </trkpt>
      <trkpt lat="46.70993" lon="5.64636">
        <ele>320.26</ele>
        <time>2022-07-14T13:16:23Z</time>
      </trkpt>
      <trkpt lat="46.71013" lon="5.64578">
        <ele>319.78</ele>
        <time>2022-07-14T13:16:36Z</time>
      </trkpt>
      <trkpt lat="46.71016" lon="5.64573">
        <ele>319.3</ele>
        <time>2022-07-14T13:16:37Z</time>
      </trkpt>
      <trkpt lat="46.71081" lon="5.64489">
        <ele>317.85</ele>
        <time>2022-07-14T13:16:55Z</time>
      </trkpt>
      <trkpt lat="46.71137" lon="5.64412">
        <ele>315.93</ele>
        <time>2022-07-14T13:17:09Z</time>
      </trkpt>
      <trkpt lat="46.71176" lon="5.64322">
        <ele>313.05</ele>
        <time>2022-07-14T13:17:20Z</time>
      </trkpt>
      <trkpt lat="46.71184" lon="5.64292">
        <ele>311.6</ele>
        <time>2022-07-14T13:17:23Z</time>
      </trkpt>
      <trkpt lat="46.71198" lon="5.64162">
        <ele>308.24</ele>
        <time>2022-07-14T13:17:35Z</time>
      </trkpt>
      <trkpt lat="46.71201" lon="5.64121">
        <ele>306.8</ele>
        <time>2022-07-14T13:17:39Z</time>
      </trkpt>
      <trkpt lat="46.7121" lon="5.64051">
        <ele>304.88</ele>
        <time>2022-07-14T13:17:46Z</time>
      </trkpt>
      <trkpt lat="46.71228" lon="5.63919">
        <ele>303.43</ele>
        <time>2022-07-14T13:18:02Z</time>
      </trkpt>
      <trkpt lat="46.71257" lon="5.63792">
        <ele>303.43</ele>
        <time>2022-07-14T13:18:22Z</time>
      </trkpt>
      <trkpt lat="46.71279" lon="5.63696">
        <ele>301.99</ele>
        <time>2022-07-14T13:18:38Z</time>
      </trkpt>
      <trkpt lat="46.71298" lon="5.63603">
        <ele>301.51</ele>
        <time>2022-07-14T13:18:55Z</time>
      </trkpt>
      <trkpt lat="46.71295" lon="5.63601">
        <ele>301.03</ele>
        <time>2022-07-14T13:18:56Z</time>
      </trkpt>
      <trkpt lat="46.71273" lon="5.63596">
        <ele>300.55</ele>
        <time>2022-07-14T13:19:02Z</time>
      </trkpt>
      <trkpt lat="46.7127" lon="5.63598">
        <ele>300.55</ele>
        <time>2022-07-14T13:19:03Z</time>
      </trkpt>
      <trkpt lat="46.71267" lon="5.63601">
        <ele>301.03</ele>
        <time>2022-07-14T13:19:04Z</time>
      </trkpt>
      <trkpt lat="46.71265" lon="5.63605">
        <ele>300.07</ele>
        <time>2022-07-14T13:19:05Z</time>
      </trkpt>
      <trkpt lat="46.71263" lon="5.63609">
        <ele>300.55</ele>
        <time>2022-07-14T13:19:06Z</time>
      </trkpt>
      <trkpt lat="46.71261" lon="5.63614">
        <ele>300.55</ele>
        <time>2022-07-14T13:19:07Z</time>
      </trkpt>
      <trkpt lat="46.71242" lon="5.63673">
        <ele>301.51</ele>
        <time>2022-07-14T13:19:20Z</time>
      </trkpt>
      <trkpt lat="46.71225" lon="5.63754">
        <ele>301.03</ele>
        <time>2022-07-14T13:19:36Z</time>
      </trkpt>
      <trkpt lat="46.71212" lon="5.63792">
        <ele>301.99</ele>
        <time>2022-07-14T13:19:48Z</time>
      </trkpt>
      <trkpt lat="46.71203" lon="5.63804">
        <ele>302.95</ele>
        <time>2022-07-14T13:20:00Z</time>
      </trkpt>
    </trkseg>
  </trk>
</gpx>